Data Archive--July, 2005

Date Time Heat Index Current Temp Wind Chill High Temp Low Temp Humidity Dew Point Wind Speed Gust Wind Direction Rain Barometer
07/01/2005 12:00 a 74.4 71.9 71.9 72.1 71.8 92 69.5 0.0 0.0 --- 0.00 29.697
07/01/2005 12:30 a 74.2 71.8 71.8 71.9 71.7 91 69.0 0.0 0.0 --- 0.00 29.698
07/01/2005 1:00 a 73.0 71.4 71.4 71.7 71.2 90 68.3 0.0 0.0 --- 0.00 29.693
07/01/2005 1:30 a 73.0 71.2 71.2 71.3 71.2 90 68.1 0.0 0.0 --- 0.00 29.697
07/01/2005 2:00 a 73.0 71.2 71.2 71.3 71.2 90 68.1 0.0 0.0 --- 0.00 29.686
07/01/2005 2:30 a 73.2 71.2 71.2 71.3 71.2 91 68.4 0.0 0.0 --- 0.00 29.681
07/01/2005 3:00 a 73.2 71.1 71.1 71.3 71.0 91 68.3 0.0 0.0 --- 0.00 29.676
07/01/2005 3:30 a 73.2 71.0 71.0 71.0 70.9 91 68.2 0.0 0.0 --- 0.00 29.669
07/01/2005 4:00 a 73.4 70.9 70.9 71.0 70.8 92 68.5 0.0 0.0 --- 0.00 29.664
07/01/2005 4:30 a 73.4 70.6 70.6 70.8 70.4 92 68.2 0.0 0.0 --- 0.00 29.673
07/01/2005 5:00 a 72.4 70.2 70.2 70.4 70.1 92 67.8 0.0 0.0 --- 0.00 29.672
07/01/2005 5:30 a 72.6 69.9 69.9 70.1 69.7 93 67.8 0.0 0.0 --- 0.00 29.676
07/01/2005 6:00 a 72.8 69.6 69.6 69.7 69.5 94 67.8 0.0 0.0 --- 0.00 29.675
07/01/2005 6:30 a 73.0 69.6 69.6 69.6 69.5 95 68.1 0.0 0.0 --- 0.00 29.683
07/01/2005 7:00 a 72.8 69.8 69.8 70.1 69.6 94 68.0 0.0 0.0 --- 0.00 29.680
07/01/2005 7:30 a 73.4 70.6 70.6 71.1 70.1 92 68.2 0.0 0.0 --- 0.00 29.682
07/01/2005 8:00 a 74.0 71.5 71.5 72.0 71.1 88 67.8 0.0 0.0 --- 0.00 29.674
07/01/2005 8:30 a 75.0 72.7 72.7 73.2 72.0 86 68.3 0.0 2.0 E 0.00 29.672
07/01/2005 9:00 a 76.0 73.5 73.5 73.9 73.2 85 68.7 0.0 1.0 --- 0.00 29.660
07/01/2005 9:30 a 77.4 74.6 74.6 75.2 73.9 84 69.5 0.0 2.0 E 0.00 29.651
07/01/2005 10:00 a 79.2 75.6 75.6 75.8 75.2 82 69.7 0.0 0.0 --- 0.00 29.646
07/01/2005 10:30 a 80.8 76.7 76.7 77.7 75.8 79 69.7 0.0 0.0 --- 0.00 29.633
07/01/2005 11:00 a 81.4 78.3 78.3 78.6 77.7 77 70.5 0.0 0.0 --- 0.00 29.632
07/01/2005 11:30 a 82.2 79.1 79.1 80.1 78.6 76 70.9 0.0 0.0 --- 0.00 29.628
07/01/2005 12:00 p 85.6 80.6 80.6 81.1 80.1 73 71.2 0.0 0.0 --- 0.00 29.623
07/01/2005 12:30 p 86.0 81.1 81.1 81.4 81.0 75 72.4 0.0 0.0 --- 0.00 29.617
07/01/2005 1:00 p 85.8 80.9 80.9 81.7 80.6 74 71.8 0.0 2.0 SW 0.00 29.609
07/01/2005 1:30 p 89.4 83.4 83.4 84.0 81.7 72 73.4 0.0 2.0 SW 0.00 29.606
07/01/2005 2:00 p 91.6 83.8 83.8 84.0 83.5 72 73.8 0.0 3.0 ESE 0.00 29.596
07/01/2005 2:30 p 91.3 84.0 84.0 84.1 83.9 71 73.6 0.0 2.0 N 0.00 29.586
07/01/2005 3:00 p 91.0 84.3 84.3 84.6 84.0 70 73.5 0.0 2.0 ENE 0.00 29.588
07/01/2005 3:30 p 91.6 83.7 83.7 84.4 83.3 72 73.7 0.0 2.0 ENE 0.00 29.574
07/01/2005 4:00 p 92.6 84.7 84.7 84.8 84.4 69 73.4 0.0 2.0 NNW 0.00 29.560
07/01/2005 4:30 p 91.6 84.4 84.4 84.8 84.0 72 74.4 0.0 3.0 SE 0.00 29.541
07/01/2005 5:00 p 91.3 83.8 83.8 84.0 83.3 71 73.4 0.0 0.0 --- 0.00 29.533
07/01/2005 5:30 p 88.2 82.3 82.3 83.3 81.1 76 74.0 0.0 0.0 --- 0.00 29.534
07/01/2005 6:00 p 85.2 80.2 80.2 81.1 79.4 81 73.8 0.0 3.0 NNW 0.00 29.548
07/01/2005 6:30 p 81.0 77.3 77.3 79.4 74.8 87 73.1 0.0 3.0 N 0.01 29.553
07/01/2005 7:00 p 76.0 74.3 74.3 74.9 74.0 89 70.9 0.0 3.0 S 0.00 29.569
07/01/2005 7:30 p 76.0 74.2 74.2 74.3 74.0 86 69.7 0.0 2.0 WSW 0.00 29.579
07/01/2005 8:00 p 76.0 73.7 73.7 74.1 73.2 87 69.6 0.0 1.0 --- 0.00 29.571
07/01/2005 8:30 p 75.0 72.8 72.8 73.2 72.4 88 69.0 0.0 0.0 --- 0.00 29.576
07/01/2005 9:00 p 74.0 72.2 72.2 72.4 72.0 89 68.8 0.0 0.0 --- 0.00 29.581
07/01/2005 9:30 p 74.0 71.7 71.7 72.0 71.4 89 68.3 0.0 0.0 --- 0.00 29.596
07/01/2005 10:00 p 73.0 71.2 71.2 71.4 71.1 89 67.8 0.0 0.0 --- 0.00 29.594
07/01/2005 10:30 p 73.0 71.0 71.0 71.1 70.9 90 67.9 0.0 0.0 --- 0.00 29.591
07/01/2005 11:00 p 73.2 70.8 70.8 70.9 70.7 91 68.0 0.0 0.0 --- 0.00 29.594
07/01/2005 11:30 p 73.4 70.6 70.6 70.7 70.5 92 68.2 0.0 0.0 --- 0.00 29.594
07/02/2005 12:00 a 72.6 70.2 70.2 70.5 70.1 93 68.1 0.0 0.0 --- 0.00 29.595
07/02/2005 12:30 a 72.8 69.9 69.9 70.1 69.6 94 68.1 0.0 0.0 --- 0.00 29.599
07/02/2005 1:00 a 72.8 69.7 69.7 69.8 69.6 94 67.9 0.0 0.0 --- 0.00 29.596
07/02/2005 1:30 a 72.8 70.2 70.2 70.7 69.8 94 68.4 0.0 3.0 SW 0.00 29.604
07/02/2005 2:00 a 74.0 70.9 70.9 71.1 70.7 95 69.4 0.0 0.0 --- 0.03 29.589
07/02/2005 2:30 a 74.2 70.6 70.6 71.0 70.3 96 69.4 0.0 3.0 SW 0.04 29.592
07/02/2005 3:00 a 73.4 70.0 70.0 70.3 69.8 97 69.1 0.0 2.0 SW 0.00 29.603
07/02/2005 3:30 a 73.4 69.6 69.6 69.8 69.4 97 68.7 0.0 0.0 --- 0.00 29.598
07/02/2005 4:00 a 71.7 69.1 69.1 69.4 68.8 97 68.2 0.0 0.0 --- 0.00 29.600
07/02/2005 4:30 a 71.7 68.7 68.7 68.8 68.5 97 67.8 0.0 0.0 --- 0.00 29.598
07/02/2005 5:00 a 70.0 68.2 68.2 68.6 67.9 97 67.3 0.0 0.0 --- 0.00 29.595
07/02/2005 5:30 a 67.7 67.7 67.7 67.9 67.4 97 66.8 0.0 0.0 --- 0.00 29.617
07/02/2005 6:00 a 67.3 67.3 67.3 67.5 67.2 97 66.4 0.0 0.0 --- 0.00 29.637
07/02/2005 6:30 a 67.3 67.3 67.3 67.7 67.1 98 66.7 0.0 0.0 --- 0.00 29.653
07/02/2005 7:00 a 70.0 68.1 68.1 68.6 67.6 98 67.5 0.0 0.0 --- 0.00 29.671
07/02/2005 7:30 a 71.8 68.7 68.7 68.9 68.5 98 68.1 0.0 0.0 --- 0.00 29.681
07/02/2005 8:00 a 71.1 69.1 69.1 69.8 68.8 91 66.4 0.0 1.0 SW 0.00 29.697
07/02/2005 8:30 a 73.0 70.7 70.7 71.3 69.8 83 65.3 0.0 0.0 --- 0.00 29.698
07/02/2005 9:00 a 73.8 71.6 71.6 72.0 71.3 79 64.7 0.0 2.0 SW 0.00 29.699
07/02/2005 9:30 a 74.2 72.8 72.8 73.5 72.0 72 63.3 1.0 5.0 SE 0.00 29.713
07/02/2005 10:00 a 75.2 73.5 73.5 73.6 73.4 66 61.5 1.0 5.0 SE 0.00 29.719
07/02/2005 10:30 a 75.6 73.5 73.5 73.8 73.4 68 62.3 1.0 6.0 SE 0.00 29.718
07/02/2005 11:00 a 75.2 74.1 74.1 74.6 73.8 66 62.0 0.0 3.0 ESE 0.00 29.723
07/02/2005 11:30 a 76.2 75.7 75.7 76.7 74.6 61 61.3 0.0 4.0 ESE 0.00 29.728
07/02/2005 12:00 p 77.0 77.2 77.2 77.8 76.7 58 61.3 0.0 5.0 SE 0.00 29.729
07/02/2005 12:30 p 77.4 77.3 77.3 77.7 77.0 62 63.3 0.0 5.0 ESE 0.00 29.727
07/02/2005 1:00 p 78.8 77.8 77.8 77.9 77.5 58 61.9 1.0 6.0 SE 0.00 29.732
07/02/2005 1:30 p 78.7 78.4 78.4 79.3 77.9 57 61.9 1.0 4.0 ESE 0.00 29.730
07/02/2005 2:00 p 80.4 79.8 79.8 80.5 79.3 52 60.6 1.0 5.0 SE 0.00 29.729
07/02/2005 2:30 p 80.0 80.2 80.2 80.6 79.9 50 59.9 1.0 5.0 SE 0.00 29.732
07/02/2005 3:00 p 80.0 80.0 80.0 80.1 79.8 50 59.7 1.0 5.0 ESE 0.00 29.738
07/02/2005 3:30 p 80.0 80.1 80.1 80.2 80.0 48 58.7 1.0 4.0 ESE 0.00 29.746
07/02/2005 4:00 p 81.0 80.6 80.6 81.2 80.1 46 57.9 0.0 6.0 ESE 0.00 29.744
07/02/2005 4:30 p 81.0 81.2 81.2 81.4 81.1 46 58.5 1.0 4.0 ESE 0.00 29.743
07/02/2005 5:00 p 81.0 81.0 81.0 81.3 80.8 46 58.3 1.0 4.0 ESE 0.00 29.743
07/02/2005 5:30 p 81.0 80.5 80.5 80.8 80.2 48 59.0 1.0 5.0 ESE 0.00 29.738
07/02/2005 6:00 p 80.0 80.1 80.1 80.3 80.0 48 58.7 1.0 6.0 SE 0.00 29.741
07/02/2005 6:30 p 80.0 79.8 79.8 80.1 79.5 46 57.2 0.0 4.0 SE 0.00 29.752
07/02/2005 7:00 p 80.0 79.5 79.5 79.6 79.1 48 58.1 1.0 4.0 SE 0.00 29.764
07/02/2005 7:30 p 78.0 78.4 78.4 79.1 78.0 50 58.2 1.0 4.0 SE 0.00 29.774
07/02/2005 8:00 p 78.3 77.7 77.7 78.0 77.5 53 59.2 0.0 3.0 SE 0.00 29.783
07/02/2005 8:30 p 76.4 76.0 76.0 77.5 73.9 62 62.1 0.0 2.0 SE 0.00 29.788
07/02/2005 9:00 p 72.0 72.1 72.1 73.8 70.7 68 61.0 0.0 0.0 --- 0.00 29.801
07/02/2005 9:30 p 70.2 69.8 69.8 70.6 69.3 71 60.0 0.0 0.0 --- 0.00 29.817
07/02/2005 10:00 p 69.6 68.7 68.7 69.3 68.2 73 59.7 0.0 0.0 --- 0.00 29.825
07/02/2005 10:30 p 67.7 67.7 67.7 68.2 67.1 78 60.6 0.0 0.0 --- 0.00 29.836
07/02/2005 11:00 p 66.8 66.8 66.8 67.2 66.4 80 60.4 0.0 0.0 --- 0.00 29.841
07/02/2005 11:30 p 66.1 66.1 66.1 66.4 65.8 80 59.8 0.0 0.0 --- 0.00 29.844
07/03/2005 12:00 a 65.3 65.3 65.3 65.8 65.0 83 60.0 0.0 0.0 --- 0.00 29.849
07/03/2005 12:30 a 64.3 64.3 64.3 65.0 63.7 84 59.4 0.0 0.0 --- 0.00 29.856
07/03/2005 1:00 a 63.7 63.7 63.7 63.7 63.6 84 58.8 0.0 0.0 --- 0.00 29.871
07/03/2005 1:30 a 63.1 63.1 63.1 63.6 62.6 85 58.5 0.0 0.0 --- 0.00 29.872
07/03/2005 2:00 a 62.1 62.1 62.1 62.6 61.7 86 57.9 0.0 0.0 --- 0.00 29.885
07/03/2005 2:30 a 62.1 62.1 62.1 62.9 61.7 80 55.9 0.0 0.0 --- 0.00 29.874
07/03/2005 3:00 a 63.1 63.1 63.1 63.5 62.3 82 57.5 0.0 0.0 --- 0.00 29.881
07/03/2005 3:30 a 61.5 61.5 61.5 62.3 61.0 86 57.3 0.0 0.0 --- 0.00 29.894
07/03/2005 4:00 a 60.8 60.8 60.8 61.0 60.5 86 56.6 0.0 0.0 --- 0.00 29.905
07/03/2005 4:30 a 60.4 60.4 60.4 60.6 60.2 85 55.9 0.0 0.0 --- 0.00 29.913
07/03/2005 5:00 a 60.5 60.5 60.5 60.7 60.3 84 55.6 0.0 0.0 --- 0.00 29.923
07/03/2005 5:30 a 60.6 60.6 60.6 60.8 60.4 81 54.7 0.0 0.0 --- 0.00 29.931
07/03/2005 6:00 a 61.2 61.2 61.2 61.4 60.8 80 55.0 0.0 0.0 --- 0.00 29.944
07/03/2005 6:30 a 61.8 61.8 61.8 62.2 61.4 78 54.9 0.0 0.0 --- 0.00 29.961
07/03/2005 7:00 a 63.1 63.1 63.1 64.1 62.2 75 55.1 0.0 0.0 --- 0.00 29.966
07/03/2005 7:30 a 65.4 65.4 65.4 67.0 64.1 70 55.4 0.0 0.0 --- 0.00 29.976
07/03/2005 8:00 a 68.0 68.1 68.1 69.2 67.0 67 56.7 0.0 0.0 --- 0.00 29.978
07/03/2005 8:30 a 70.0 70.0 70.0 70.7 69.2 64 57.3 0.0 1.0 NE 0.00 29.989
07/03/2005 9:00 a 72.0 71.6 71.6 72.4 70.7 60 57.0 0.0 2.0 ESE 0.00 29.994
07/03/2005 9:30 a 73.0 73.0 73.0 73.4 72.4 53 54.9 0.0 3.0 SE 0.00 29.995
07/03/2005 10:00 a 74.0 73.9 73.9 74.3 73.4 53 55.7 0.0 3.0 N 0.00 29.999
07/03/2005 10:30 a 75.0 74.8 74.8 75.1 74.3 52 56.0 0.0 3.0 N 0.00 30.007
07/03/2005 11:00 a 74.8 75.4 75.4 75.9 75.0 49 54.9 0.0 3.0 SSE 0.00 30.016
07/03/2005 11:30 a 75.6 76.1 76.1 76.4 75.8 48 55.0 0.0 3.0 NW 0.00 30.015
07/03/2005 12:00 p 76.0 76.1 76.1 76.3 75.9 50 56.1 1.0 3.0 NNW 0.00 30.015
07/03/2005 12:30 p 76.0 76.3 76.3 76.5 76.1 51 56.9 1.0 3.0 N 0.00 30.013
07/03/2005 1:00 p 76.6 76.7 76.7 76.8 76.4 48 55.6 1.0 3.0 N 0.00 30.007
07/03/2005 1:30 p 76.6 76.6 76.6 76.8 76.4 48 55.5 1.0 4.0 NNW 0.00 30.007
07/03/2005 2:00 p 76.6 76.8 76.8 77.4 76.4 48 55.6 1.0 3.0 N 0.00 29.998
07/03/2005 2:30 p 76.8 77.0 77.0 77.3 76.9 49 56.4 1.0 3.0 NNW 0.00 29.992
07/03/2005 3:00 p 77.7 77.9 77.9 78.7 76.9 47 56.1 0.0 3.0 N 0.00 29.996
07/03/2005 3:30 p 76.6 77.4 77.4 77.9 76.6 48 56.2 0.0 3.0 NNW 0.00 29.987
07/03/2005 4:00 p 76.6 76.9 76.9 77.5 76.5 48 55.7 0.0 2.0 NNW 0.00 29.989
07/03/2005 4:30 p 78.0 77.6 77.6 77.7 77.4 50 57.5 0.0 2.0 NNW 0.00 29.985
07/03/2005 5:00 p 77.0 77.3 77.3 77.4 77.1 50 57.2 0.0 2.0 NNW 0.00 29.979
07/03/2005 5:30 p 77.0 76.8 76.8 77.2 76.6 51 57.3 0.0 2.0 NNW 0.00 29.974
07/03/2005 6:00 p 75.6 76.3 76.3 76.6 75.9 48 55.2 0.0 3.0 NNW 0.00 29.982
07/03/2005 6:30 p 76.0 75.7 75.7 75.9 75.6 51 56.3 0.0 2.0 N 0.00 29.987
07/03/2005 7:00 p 75.0 74.5 74.5 75.6 73.6 55 57.3 0.0 2.0 N 0.00 29.986
07/03/2005 7:30 p 73.0 73.0 73.0 73.6 72.6 60 58.3 0.0 2.0 N 0.00 29.992
07/03/2005 8:00 p 72.0 71.8 71.8 72.6 71.1 61 57.6 0.0 1.0 N 0.00 29.993
07/03/2005 8:30 p 71.0 70.6 70.6 71.1 70.0 67 59.1 0.0 0.0 --- 0.00 29.998
07/03/2005 9:00 p 69.0 69.4 69.4 70.0 68.6 69 58.8 0.0 0.0 --- 0.00 30.011
07/03/2005 9:30 p 67.7 67.7 67.7 68.6 66.9 74 59.1 0.0 0.0 --- 0.00 30.026
07/03/2005 10:00 p 66.2 66.2 66.2 66.9 65.6 77 58.8 0.0 0.0 --- 0.00 30.025
07/03/2005 10:30 p 65.3 65.3 65.3 65.6 64.9 79 58.6 0.0 0.0 --- 0.00 30.027
07/03/2005 11:00 p 64.4 64.4 64.4 64.9 63.8 82 58.8 0.0 0.0 --- 0.00 30.019
07/03/2005 11:30 p 63.3 63.3 63.3 63.8 62.9 85 58.7 0.0 0.0 --- 0.00 30.025
07/04/2005 12:00 a 62.5 62.5 62.5 62.9 62.3 87 58.6 0.0 0.0 --- 0.00 30.028
07/04/2005 12:30 a 62.0 62.0 62.0 62.3 61.6 88 58.4 0.0 0.0 --- 0.00 30.035
07/04/2005 1:00 a 61.0 61.0 61.0 61.6 60.6 90 58.1 0.0 0.0 --- 0.00 30.026
07/04/2005 1:30 a 60.4 60.4 60.4 60.6 60.2 91 57.8 0.0 0.0 --- 0.00 30.023
07/04/2005 2:00 a 60.2 60.2 60.2 60.3 60.2 91 57.6 0.0 0.0 --- 0.00 30.027
07/04/2005 2:30 a 60.4 60.4 60.4 60.5 60.3 92 58.1 0.0 0.0 --- 0.00 30.018
07/04/2005 3:00 a 60.6 60.6 60.6 60.6 60.5 91 58.0 0.0 0.0 --- 0.00 30.026
07/04/2005 3:30 a 60.4 60.4 60.4 60.5 60.3 91 57.8 0.0 0.0 --- 0.00 30.009
07/04/2005 4:00 a 60.2 60.2 60.2 60.3 60.2 91 57.6 0.0 0.0 --- 0.00 30.006
07/04/2005 4:30 a 60.0 60.0 60.0 60.2 59.8 89 56.8 0.0 0.0 --- 0.00 30.001
07/04/2005 5:00 a 59.7 59.7 59.7 59.9 59.3 89 56.5 0.0 0.0 --- 0.00 30.007
07/04/2005 5:30 a 59.4 59.4 59.4 59.5 59.2 90 56.5 0.0 0.0 --- 0.00 30.027
07/04/2005 6:00 a 58.8 58.8 58.8 59.2 58.4 91 56.2 0.0 0.0 --- 0.00 30.023
07/04/2005 6:30 a 58.2 58.2 58.2 58.5 58.1 92 55.9 0.0 0.0 --- 0.00 30.038
07/04/2005 7:00 a 58.5 58.5 58.5 59.3 58.1 92 56.2 0.0 0.0 --- 0.00 30.037
07/04/2005 7:30 a 61.4 61.4 61.4 63.9 59.4 81 55.5 0.0 0.0 --- 0.00 30.043
07/04/2005 8:00 a 65.5 65.5 65.5 66.9 63.9 74 57.0 0.0 0.0 --- 0.00 30.041
07/04/2005 8:30 a 67.8 67.8 67.8 68.6 66.9 71 58.1 0.0 0.0 --- 0.00 30.050
07/04/2005 9:00 a 69.0 69.4 69.4 70.4 68.6 69 58.8 0.0 0.0 --- 0.00 30.045
07/04/2005 9:30 a 71.0 71.3 71.3 72.1 70.4 66 59.4 0.0 0.0 --- 0.00 30.045
07/04/2005 10:00 a 73.0 73.1 73.1 74.2 72.1 59 57.9 0.0 0.0 --- 0.00 30.039
07/04/2005 10:30 a 75.0 74.7 74.7 75.2 74.2 57 58.5 0.0 0.0 --- 0.00 30.041
07/04/2005 11:00 a 76.0 75.9 75.9 76.5 75.2 56 59.1 0.0 0.0 --- 0.00 30.034
07/04/2005 11:30 a 77.0 77.0 77.0 77.6 76.5 52 58.0 0.0 0.0 --- 0.00 30.030
07/04/2005 12:00 p 79.4 78.5 78.5 79.5 77.5 52 59.4 0.0 0.0 --- 0.00 30.018
07/04/2005 12:30 p 81.0 80.1 80.1 80.4 79.5 55 62.5 0.0 0.0 --- 0.00 30.019
07/04/2005 1:00 p 80.8 80.4 80.4 80.5 80.2 54 62.2 0.0 0.0 --- 0.00 30.001
07/04/2005 1:30 p 80.6 80.3 80.3 80.6 80.0 53 61.6 0.0 0.0 --- 0.00 29.994
07/04/2005 2:00 p 81.2 80.7 80.7 81.1 80.5 51 60.9 0.0 0.0 --- 0.00 29.981
07/04/2005 2:30 p 81.0 81.2 81.2 81.5 80.8 50 60.8 0.0 0.0 --- 0.00 29.980
07/04/2005 3:00 p 81.0 81.3 81.3 81.5 80.8 48 59.8 0.0 0.0 --- 0.00 29.973
07/04/2005 3:30 p 81.0 81.1 81.1 81.5 80.7 48 59.6 0.0 0.0 --- 0.00 29.968
07/04/2005 4:00 p 81.0 80.8 80.8 81.0 80.6 48 59.3 0.0 0.0 --- 0.00 29.970
07/04/2005 4:30 p 81.6 80.6 80.6 81.0 80.2 53 61.9 0.0 0.0 --- 0.00 29.959
07/04/2005 5:00 p 81.0 80.0 80.0 80.3 79.7 55 62.4 0.0 0.0 --- 0.00 29.963
07/04/2005 5:30 p 81.2 79.6 79.6 79.7 79.4 56 62.5 0.0 0.0 --- 0.00 29.962
07/04/2005 6:00 p 80.8 79.0 79.0 79.5 78.5 59 63.5 0.0 0.0 --- 0.00 29.960
07/04/2005 6:30 p 79.1 78.0 78.0 78.5 77.4 61 63.5 0.0 0.0 --- 0.00 29.953
07/04/2005 7:00 p 77.8 76.9 76.9 77.4 76.4 64 63.8 0.0 0.0 --- 0.00 29.949
07/04/2005 7:30 p 77.4 75.8 75.8 76.4 75.2 67 64.1 0.0 0.0 --- 0.00 29.951
07/04/2005 8:00 p 77.0 74.6 74.6 75.2 74.0 72 65.0 0.0 0.0 --- 0.00 29.952
07/04/2005 8:30 p 76.0 73.5 73.5 74.0 73.0 76 65.5 0.0 0.0 --- 0.00 29.956
07/04/2005 9:00 p 73.8 72.4 72.4 73.0 71.8 79 65.5 0.0 0.0 --- 0.00 29.959
07/04/2005 9:30 p 73.0 71.3 71.3 71.8 70.9 81 65.2 0.0 0.0 --- 0.00 29.965
07/04/2005 10:00 p 73.0 70.5 70.5 70.9 70.2 83 65.1 0.0 0.0 --- 0.00 29.962
07/04/2005 10:30 p 72.0 69.9 69.9 70.3 69.7 85 65.2 0.0 0.0 --- 0.00 29.961
07/04/2005 11:00 p 72.0 69.5 69.5 69.7 69.4 86 65.1 0.0 0.0 --- 0.00 29.961
07/04/2005 11:30 p 71.0 69.2 69.2 69.4 68.9 87 65.2 0.0 0.0 --- 0.00 29.958
07/05/2005 12:00 a 71.0 68.5 68.5 68.9 68.0 88 64.8 0.0 0.0 --- 0.00 29.955
07/05/2005 12:30 a 67.7 67.7 67.7 68.1 67.3 90 64.7 0.0 0.0 --- 0.00 29.954
07/05/2005 1:00 a 67.0 67.0 67.0 67.4 66.8 92 64.6 0.0 0.0 --- 0.00 29.952
07/05/2005 1:30 a 66.6 66.6 66.6 66.8 66.3 92 64.2 0.0 0.0 --- 0.00 29.952
07/05/2005 2:00 a 66.2 66.2 66.2 66.3 66.1 93 64.1 0.0 0.0 --- 0.00 29.939
07/05/2005 2:30 a 66.2 66.2 66.2 66.5 66.1 94 64.4 0.0 0.0 --- 0.00 29.927
07/05/2005 3:00 a 66.8 66.8 66.8 67.0 66.4 94 65.0 0.0 0.0 --- 0.00 29.917
07/05/2005 3:30 a 67.3 67.3 67.3 67.7 67.0 94 65.5 0.0 0.0 --- 0.00 29.904
07/05/2005 4:00 a 67.9 67.9 67.9 68.0 67.7 93 65.8 0.0 0.0 --- 0.00 29.903
07/05/2005 4:30 a 70.0 68.0 68.0 68.0 68.0 92 65.6 0.0 0.0 --- 0.00 29.905
07/05/2005 5:00 a 70.0 68.0 68.0 68.0 67.9 92 65.6 0.0 0.0 --- 0.00 29.897
07/05/2005 5:30 a 67.9 67.9 67.9 68.0 67.9 92 65.5 0.0 0.0 --- 0.00 29.896
07/05/2005 6:00 a 70.0 68.0 68.0 68.1 67.9 92 65.6 0.0 0.0 --- 0.00 29.894
07/05/2005 6:30 a 70.0 68.3 68.3 68.6 68.0 92 65.9 0.0 0.0 --- 0.00 29.901
07/05/2005 7:00 a 71.0 68.8 68.8 69.1 68.5 90 65.8 0.0 0.0 --- 0.00 29.898
07/05/2005 7:30 a 71.0 69.3 69.3 69.5 69.1 90 66.2 0.0 0.0 --- 0.00 29.901
07/05/2005 8:00 a 72.0 70.1 70.1 70.5 69.5 89 66.7 0.0 0.0 --- 0.00 29.897
07/05/2005 8:30 a 73.0 71.0 71.0 71.6 70.5 88 67.3 0.0 0.0 --- 0.00 29.894
07/05/2005 9:00 a 74.0 72.0 72.0 72.2 71.6 87 67.9 0.0 0.0 --- 0.00 29.889
07/05/2005 9:30 a 75.0 72.8 72.8 73.4 72.2 85 68.0 0.0 0.0 --- 0.00 29.884
07/05/2005 10:00 a 76.0 73.8 73.8 74.5 73.3 83 68.3 0.0 1.0 --- 0.00 29.887
07/05/2005 10:30 a 78.9 75.6 75.6 76.4 74.5 79 68.6 0.0 2.0 NNW 0.00 29.882
07/05/2005 11:00 a 80.2 77.2 77.2 77.7 76.4 76 69.1 0.0 2.0 NNW 0.00 29.871
07/05/2005 11:30 a 81.2 78.7 78.7 79.6 77.7 71 68.5 0.0 3.0 NNW 0.00 29.864
07/05/2005 12:00 p 83.2 79.9 79.9 80.1 79.5 71 69.7 0.0 2.0 N 0.00 29.855
07/05/2005 12:30 p 84.6 80.6 80.6 81.3 80.1 68 69.1 0.0 3.0 NNW 0.00 29.848
07/05/2005 1:00 p 86.7 81.6 81.6 82.3 81.2 69 70.5 0.0 1.0 --- 0.00 29.847
07/05/2005 1:30 p 86.7 82.0 82.0 82.3 81.7 69 70.8 0.0 2.0 NW 0.00 29.829
07/05/2005 2:00 p 89.0 82.5 82.5 82.7 82.3 70 71.7 0.0 2.0 NW 0.00 29.811
07/05/2005 2:30 p 89.8 83.8 83.8 84.6 82.4 67 71.7 0.0 2.0 WNW 0.00 29.805
07/05/2005 3:00 p 89.2 82.8 82.8 83.7 82.3 71 72.4 0.0 0.0 --- 0.00 29.799
07/05/2005 3:30 p 87.2 82.1 82.1 82.3 82.0 71 71.8 0.0 0.0 --- 0.00 29.787
07/05/2005 4:00 p 87.6 81.8 81.8 82.0 81.5 73 72.3 0.0 0.0 --- 0.00 29.781
07/05/2005 4:30 p 87.6 81.5 81.5 81.6 81.3 73 72.0 0.0 1.0 --- 0.00 29.761
07/05/2005 5:00 p 87.8 81.6 81.6 81.6 81.5 74 72.5 0.0 0.0 --- 0.00 29.755
07/05/2005 5:30 p 86.4 81.0 81.0 81.5 80.5 77 73.1 0.0 0.0 --- 0.00 29.756
07/05/2005 6:00 p 84.8 80.1 80.1 80.6 79.8 79 73.0 0.0 0.0 --- 0.00 29.755
07/05/2005 6:30 p 83.4 79.4 79.4 79.8 79.0 82 73.4 0.0 0.0 --- 0.00 29.768
07/05/2005 7:00 p 82.5 78.4 78.4 79.0 77.8 85 73.5 0.0 1.0 NW 0.00 29.764
07/05/2005 7:30 p 82.5 77.5 77.5 77.8 77.2 85 72.6 0.0 3.0 NW 0.00 29.752
07/05/2005 8:00 p 81.0 76.9 76.9 77.3 76.5 83 71.3 0.0 2.0 --- 0.00 29.746
07/05/2005 8:30 p 79.6 76.2 76.2 76.6 75.7 86 71.7 0.0 0.0 --- 0.00 29.757
07/05/2005 9:00 p 77.5 75.3 75.3 75.7 75.0 85 70.5 0.0 0.0 --- 0.00 29.763
07/05/2005 9:30 p 77.7 74.7 74.7 75.0 74.3 87 70.6 0.0 0.0 --- 0.00 29.770
07/05/2005 10:00 p 76.0 73.9 73.9 74.3 73.6 89 70.5 0.0 0.0 --- 0.00 29.776
07/05/2005 10:30 p 75.0 73.4 73.4 73.6 73.3 90 70.3 0.0 0.0 --- 0.00 29.775
07/05/2005 11:00 p 75.0 73.2 73.2 73.3 73.2 90 70.1 0.0 0.0 --- 0.00 29.775
07/05/2005 11:30 p 76.0 73.5 73.5 73.7 73.3 90 70.4 0.0 0.0 --- 0.00 29.769
07/06/2005 12:00 a 76.2 73.5 73.5 73.7 73.3 91 70.7 0.0 0.0 --- 0.00 29.759
07/06/2005 12:30 a 75.2 73.3 73.3 73.4 73.3 91 70.5 0.0 0.0 --- 0.00 29.746
07/06/2005 1:00 a 75.6 73.2 73.2 73.3 72.9 93 71.1 0.0 0.0 --- 0.01 29.741
07/06/2005 1:30 a 76.0 72.5 72.5 72.9 72.2 95 71.0 0.0 0.0 --- 0.03 29.729
07/06/2005 2:00 a 75.2 72.0 72.0 72.2 71.9 96 70.8 0.0 0.0 --- 0.01 29.729
07/06/2005 2:30 a 75.2 71.7 71.7 71.9 71.6 96 70.5 0.0 0.0 --- 0.00 29.725
07/06/2005 3:00 a 75.4 71.5 71.5 71.6 71.4 97 70.6 0.0 0.0 --- 0.00 29.715
07/06/2005 3:30 a 75.4 71.5 71.5 71.5 71.4 97 70.6 0.0 0.0 --- 0.00 29.717
07/06/2005 4:00 a 74.4 71.4 71.4 71.5 71.3 97 70.5 0.0 0.0 --- 0.00 29.715
07/06/2005 4:30 a 74.4 71.4 71.4 71.5 71.3 97 70.5 0.0 0.0 --- 0.00 29.709
07/06/2005 5:00 a 74.4 71.3 71.3 71.4 71.3 97 70.4 0.0 0.0 --- 0.00 29.706
07/06/2005 5:30 a 74.4 71.3 71.3 71.3 71.2 97 70.4 0.0 0.0 --- 0.00 29.708
07/06/2005 6:00 a 74.6 71.2 71.2 71.3 71.2 98 70.6 0.0 0.0 --- 0.00 29.711
07/06/2005 6:30 a 74.6 71.2 71.2 71.3 71.2 98 70.6 0.0 0.0 --- 0.00 29.718
07/06/2005 7:00 a 74.6 71.2 71.2 71.3 71.2 98 70.6 0.0 0.0 --- 0.00 29.723
07/06/2005 7:30 a 75.6 71.5 71.5 71.6 71.3 98 70.9 0.0 0.0 --- 0.00 29.730
07/06/2005 8:00 a 75.6 71.9 71.9 72.2 71.6 98 71.3 0.0 0.0 --- 0.00 29.731
07/06/2005 8:30 a 75.6 72.4 72.4 72.7 72.2 98 71.8 0.0 0.0 --- 0.00 29.739
07/06/2005 9:00 a 76.4 72.9 72.9 73.3 72.7 97 72.0 0.0 0.0 --- 0.00 29.739
07/06/2005 9:30 a 77.0 73.7 73.7 74.2 73.3 95 72.2 0.0 0.0 --- 0.00 29.739
07/06/2005 10:00 a 78.2 74.6 74.6 75.3 74.1 92 72.1 0.0 0.0 --- 0.00 29.740
07/06/2005 10:30 a 80.0 75.7 75.7 75.9 75.3 90 72.6 0.0 0.0 --- 0.00 29.742
07/06/2005 11:00 a 79.8 76.4 76.4 76.7 75.9 88 72.6 0.0 1.0 NW 0.00 29.747
07/06/2005 11:30 a 81.0 77.1 77.1 77.9 76.7 85 72.2 0.0 3.0 NW 0.00 29.742
07/06/2005 12:00 p 82.6 79.0 79.0 79.7 77.9 78 71.6 0.0 3.0 NW 0.00 29.747
07/06/2005 12:30 p 84.6 79.6 79.6 79.7 79.4 78 72.1 0.0 3.0 NW 0.00 29.745
07/06/2005 1:00 p 84.4 79.7 79.7 80.2 79.4 77 71.9 0.0 1.0 --- 0.00 29.747
07/06/2005 1:30 p 84.2 79.9 79.9 80.4 79.7 76 71.7 0.0 3.0 NW 0.00 29.746
07/06/2005 2:00 p 87.6 81.6 81.6 82.0 80.4 73 72.1 0.0 2.0 NW 0.00 29.746
07/06/2005 2:30 p 87.0 82.1 82.1 82.6 81.7 70 71.4 0.0 2.0 NW 0.00 29.743
07/06/2005 3:00 p 87.4 83.3 83.3 83.8 82.6 66 70.8 0.0 3.0 NW 0.00 29.740
07/06/2005 3:30 p 89.6 83.2 83.2 83.8 82.3 73 73.7 0.0 2.0 NW 0.00 29.731
07/06/2005 4:00 p 87.2 82.3 82.3 82.6 82.0 71 72.0 0.0 2.0 NW 0.00 29.731
07/06/2005 4:30 p 88.0 81.8 81.8 82.5 81.1 75 73.1 0.0 0.0 --- 0.00 29.733
07/06/2005 5:00 p 87.0 80.7 80.7 81.1 80.5 80 74.0 0.0 1.0 NW 0.01 29.737
07/06/2005 5:30 p 83.3 77.7 77.7 80.5 75.5 93 75.5 0.0 3.0 NW 0.11 29.726
07/06/2005 6:00 p 80.0 75.5 75.5 75.8 75.2 95 74.0 0.0 1.0 NW 0.08 29.725
07/06/2005 6:30 p 80.0 75.9 75.9 76.1 75.7 95 74.4 0.0 0.0 --- 0.06 29.736
07/06/2005 7:00 p 80.0 75.9 75.9 76.1 75.5 92 73.4 0.0 3.0 N 0.04 29.757
07/06/2005 7:30 p 76.4 74.2 74.2 75.5 73.2 92 71.7 0.0 3.0 SE 0.03 29.769
07/06/2005 8:00 p 75.8 73.0 73.0 73.2 72.8 94 71.2 0.0 1.0 SE 0.02 29.778
07/06/2005 8:30 p 76.0 72.9 72.9 73.1 72.6 95 71.4 0.0 0.0 --- 0.02 29.779
07/06/2005 9:00 p 75.2 72.4 72.4 72.6 72.1 96 71.2 0.0 0.0 --- 0.01 29.788
07/06/2005 9:30 p 75.2 72.0 72.0 72.2 71.8 96 70.8 0.0 0.0 --- 0.01 29.794
07/06/2005 10:00 p 75.2 71.7 71.7 71.8 71.5 96 70.5 0.0 0.0 --- 0.01 29.817
07/06/2005 10:30 p 74.4 71.4 71.4 71.5 71.2 97 70.5 0.0 0.0 --- 0.00 29.819
07/06/2005 11:00 p 74.4 71.2 71.2 71.3 71.1 97 70.3 0.0 0.0 --- 0.01 29.825
07/06/2005 11:30 p 74.4 71.2 71.2 71.3 71.0 97 70.3 0.0 0.0 --- 0.01 29.825
07/07/2005 12:00 a 74.6 71.0 71.0 71.0 70.9 98 70.4 0.0 0.0 --- 0.00 29.834
07/07/2005 12:30 a 74.6 71.0 71.0 71.1 71.0 98 70.4 0.0 1.0 --- 0.01 29.838
07/07/2005 1:00 a 74.4 70.9 70.9 71.0 70.9 97 70.0 0.0 0.0 --- 0.00 29.844
07/07/2005 1:30 a 74.4 70.9 70.9 70.9 70.8 97 70.0 0.0 0.0 --- 0.00 29.853
07/07/2005 2:00 a 74.0 70.6 70.6 70.8 70.4 95 69.1 0.0 0.0 --- 0.01 29.854
07/07/2005 2:30 a 73.0 70.2 70.2 70.4 70.1 95 68.7 0.0 2.0 ESE 0.00 29.845
07/07/2005 3:00 a 73.0 69.8 69.8 70.1 69.6 95 68.3 0.0 2.0 ESE 0.00 29.849
07/07/2005 3:30 a 73.0 69.5 69.5 69.6 69.3 95 68.0 0.0 2.0 ESE 0.00 29.858
07/07/2005 4:00 a 71.3 69.0 69.0 69.3 68.7 93 66.9 0.0 2.0 ESE 0.00 29.864
07/07/2005 4:30 a 71.3 68.5 68.5 68.7 68.3 93 66.4 0.0 0.0 --- 0.00 29.870
07/07/2005 5:00 a 70.0 68.1 68.1 68.3 67.9 92 65.7 0.0 0.0 --- 0.00 29.880
07/07/2005 5:30 a 67.8 67.8 67.8 67.9 67.7 92 65.4 0.0 0.0 --- 0.00 29.895
07/07/2005 6:00 a 67.8 67.8 67.8 67.8 67.7 92 65.4 0.0 1.0 ESE 0.00 29.894
07/07/2005 6:30 a 67.7 67.7 67.7 67.8 67.7 92 65.3 0.0 0.0 --- 0.00 29.899
07/07/2005 7:00 a 67.7 67.7 67.7 67.8 67.7 91 65.0 0.0 0.0 --- 0.00 29.903
07/07/2005 7:30 a 67.8 67.8 67.8 68.0 67.7 91 65.1 0.0 2.0 ESE 0.00 29.911
07/07/2005 8:00 a 70.0 68.1 68.1 68.2 67.9 90 65.1 0.0 1.0 ESE 0.00 29.920
07/07/2005 8:30 a 70.0 68.2 68.2 68.3 68.2 90 65.2 0.0 2.0 ESE 0.00 29.929
07/07/2005 9:00 a 70.0 68.3 68.3 68.4 68.2 89 64.9 0.0 1.0 --- 0.00 29.929
07/07/2005 9:30 a 70.0 68.3 68.3 68.4 68.3 88 64.6 0.0 2.0 ESE 0.00 29.940
07/07/2005 10:00 a 70.0 68.4 68.4 68.6 68.3 87 64.4 0.0 0.0 --- 0.00 29.944
07/07/2005 10:30 a 71.0 68.7 68.7 68.8 68.5 85 64.0 0.0 0.0 --- 0.00 29.952
07/07/2005 11:00 a 71.0 68.9 68.9 69.0 68.8 85 64.2 0.0 0.0 --- 0.00 29.966
07/07/2005 11:30 a 71.0 69.3 69.3 69.6 69.0 83 63.9 0.0 0.0 --- 0.00 29.964
07/07/2005 12:00 p 72.0 69.9 69.9 70.0 69.6 83 64.5 0.0 0.0 --- 0.00 29.964
07/07/2005 12:30 p 72.0 70.1 70.1 70.4 69.9 82 64.4 0.0 2.0 ESE 0.00 29.961
07/07/2005 1:00 p 73.0 70.9 70.9 71.1 70.4 82 65.1 0.0 0.0 --- 0.00 29.964
07/07/2005 1:30 p 73.0 70.8 70.8 71.1 70.4 81 64.7 0.0 2.0 ESE 0.00 29.968
07/07/2005 2:00 p 72.0 70.3 70.3 70.4 70.3 82 64.6 0.0 1.0 N 0.00 29.970
07/07/2005 2:30 p 73.0 70.8 70.8 71.6 70.3 80 64.3 0.0 1.0 N 0.00 29.962
07/07/2005 3:00 p 73.8 71.9 71.9 72.1 71.6 79 65.0 0.0 0.0 --- 0.00 29.958
07/07/2005 3:30 p 73.6 71.9 71.9 72.1 71.6 78 64.7 0.0 0.0 --- 0.00 29.955
07/07/2005 4:00 p 73.8 72.0 72.0 72.4 71.6 79 65.1 0.0 0.0 --- 0.00 29.947
07/07/2005 4:30 p 74.8 72.6 72.6 72.8 72.4 78 65.4 0.0 1.0 --- 0.00 29.950
07/07/2005 5:00 p 73.8 72.2 72.2 72.5 71.9 79 65.3 0.0 1.0 NNE 0.00 29.937
07/07/2005 5:30 p 74.0 71.7 71.7 71.9 71.6 80 65.2 0.0 1.0 --- 0.00 29.937
07/07/2005 6:00 p 73.0 71.4 71.4 71.6 71.3 80 64.9 0.0 0.0 --- 0.00 29.937
07/07/2005 6:30 p 72.6 71.2 71.2 71.3 71.2 78 64.0 0.0 1.0 NNE 0.00 29.947
07/07/2005 7:00 p 72.4 71.4 71.4 71.5 71.3 77 63.8 0.0 0.0 --- 0.00 29.944
07/07/2005 7:30 p 72.6 71.4 71.4 71.5 71.2 78 64.2 0.0 0.0 --- 0.00 29.940
07/07/2005 8:00 p 72.8 71.1 71.1 71.2 71.0 79 64.3 0.0 0.0 --- 0.00 29.936
07/07/2005 8:30 p 73.0 70.8 70.8 71.0 70.5 81 64.7 0.0 0.0 --- 0.00 29.938
07/07/2005 9:00 p 72.0 70.2 70.2 70.6 69.9 82 64.5 0.0 0.0 --- 0.00 29.935
07/07/2005 9:30 p 72.0 69.6 69.6 69.9 69.3 82 63.9 0.0 0.0 --- 0.00 29.958
07/07/2005 10:00 p 71.0 69.2 69.2 69.4 69.0 84 64.2 0.0 0.0 --- 0.00 29.977
07/07/2005 10:30 p 71.0 68.8 68.8 69.0 68.7 84 63.8 0.0 2.0 NNE 0.00 29.976
07/07/2005 11:00 p 71.0 68.7 68.7 68.7 68.5 84 63.7 0.0 2.0 NNE 0.00 29.977
07/07/2005 11:30 p 70.0 68.4 68.4 68.5 68.3 84 63.4 0.0 1.0 NNE 0.00 29.989
07/08/2005 12:00 a 70.0 68.3 68.3 68.4 68.3 85 63.6 0.0 2.0 NNE 0.00 29.984
07/08/2005 12:30 a 70.0 68.3 68.3 68.3 68.2 85 63.6 0.0 2.0 NNE 0.00 29.984
07/08/2005 1:00 a 70.0 68.1 68.1 68.2 68.0 86 63.8 0.0 2.0 NNE 0.00 29.982
07/08/2005 1:30 a 67.7 67.7 67.7 68.0 67.3 87 63.7 0.0 2.0 N 0.00 29.978
07/08/2005 2:00 a 66.7 66.7 66.7 67.4 66.2 91 64.0 0.0 2.0 N 0.00 29.961
07/08/2005 2:30 a 65.8 65.8 65.8 66.2 65.4 93 63.7 0.0 3.0 N 0.01 29.954
07/08/2005 3:00 a 65.0 65.0 65.0 65.4 64.8 95 63.5 0.0 1.0 ESE 0.01 29.945
07/08/2005 3:30 a 64.7 64.7 64.7 64.9 64.5 96 63.5 0.0 1.0 ESE 0.00 29.934
07/08/2005 4:00 a 64.3 64.3 64.3 64.5 64.1 96 63.1 0.0 0.0 --- 0.01 29.927
07/08/2005 4:30 a 64.1 64.1 64.1 64.2 64.1 97 63.2 0.0 0.0 --- 0.00 29.919
07/08/2005 5:00 a 64.1 64.1 64.1 64.2 64.1 97 63.2 0.0 2.0 ESE 0.01 29.907
07/08/2005 5:30 a 64.0 64.0 64.0 64.1 63.8 97 63.1 0.0 1.0 ESE 0.00 29.895
07/08/2005 6:00 a 63.7 63.7 63.7 63.9 63.2 96 62.5 0.0 3.0 SE 0.00 29.916
07/08/2005 6:30 a 62.9 62.9 62.9 63.2 62.8 97 62.0 0.0 0.0 --- 0.00 29.902
07/08/2005 7:00 a 62.7 62.7 62.7 62.8 62.6 97 61.8 0.0 1.0 SE 0.00 29.893
07/08/2005 7:30 a 62.7 62.7 62.7 62.9 62.6 98 62.1 0.0 2.0 SE 0.01 29.903
07/08/2005 8:00 a 62.9 62.9 62.9 62.9 62.8 98 62.3 0.0 1.0 SE 0.00 29.917
07/08/2005 8:30 a 62.9 62.9 62.9 62.9 62.8 98 62.3 0.0 4.0 SE 0.00 29.892
07/08/2005 9:00 a 62.9 62.9 62.9 63.0 62.8 97 62.0 0.0 2.0 SSE 0.00 29.888
07/08/2005 9:30 a 62.9 62.9 62.9 63.0 62.9 97 62.0 0.0 3.0 ENE 0.00 29.866
07/08/2005 10:00 a 62.8 62.8 62.8 63.0 62.7 97 61.9 0.0 2.0 S 0.01 29.854
07/08/2005 10:30 a 62.7 62.7 62.7 62.8 62.6 97 61.8 0.0 4.0 SE 0.00 29.859
07/08/2005 11:00 a 62.7 62.7 62.7 62.8 62.6 98 62.1 0.0 1.0 SSE 0.00 29.857
07/08/2005 11:30 a 62.8 62.8 62.8 63.0 62.8 98 62.2 0.0 3.0 SSE 0.00 29.854
07/08/2005 12:00 p 63.0 63.0 63.0 63.0 62.9 98 62.4 0.0 3.0 SSE 0.00 29.858
07/08/2005 12:30 p 62.9 62.9 62.9 63.0 62.9 98 62.3 0.0 3.0 SE 0.00 29.835
07/08/2005 1:00 p 63.1 63.1 63.1 63.2 63.0 98 62.5 0.0 3.0 SE 0.00 29.821
07/08/2005 1:30 p 63.1 63.1 63.1 63.2 63.0 98 62.5 0.0 3.0 SE 0.00 29.820
07/08/2005 2:00 p 63.2 63.2 63.2 63.4 63.0 98 62.6 0.0 2.0 SE 0.00 29.811
07/08/2005 2:30 p 63.4 63.4 63.4 63.5 63.4 98 62.8 0.0 2.0 SE 0.01 29.800
07/08/2005 3:00 p 63.4 63.4 63.4 63.5 63.4 98 62.8 0.0 2.0 SE 0.00 29.788
07/08/2005 3:30 p 63.4 63.4 63.4 63.5 63.1 97 62.5 0.0 5.0 SE 0.00 29.782
07/08/2005 4:00 p 63.0 63.0 63.0 63.1 62.9 97 62.1 0.0 3.0 SSW 0.00 29.783
07/08/2005 4:30 p 62.9 62.9 62.9 63.0 62.8 98 62.3 0.0 4.0 SE 0.02 29.777
07/08/2005 5:00 p 63.3 63.3 63.3 63.7 63.0 98 62.7 0.0 3.0 SE 0.02 29.772
07/08/2005 5:30 p 63.6 63.6 63.6 63.8 63.6 98 63.0 0.0 4.0 SE 0.00 29.772
07/08/2005 6:00 p 63.9 63.9 63.9 64.1 63.7 97 63.0 0.0 4.0 SE 0.01 29.771
07/08/2005 6:30 p 63.9 63.9 63.9 64.1 63.8 97 63.0 0.0 5.0 SE 0.00 29.778
07/08/2005 7:00 p 64.0 64.0 64.0 64.2 63.9 97 63.1 0.0 4.0 SE 0.00 29.785
07/08/2005 7:30 p 64.1 64.1 64.1 64.3 64.0 97 63.2 0.0 3.0 SSE 0.00 29.783
07/08/2005 8:00 p 64.0 64.0 64.0 64.2 63.7 95 62.5 0.0 3.0 SSE 0.00 29.786
07/08/2005 8:30 p 63.6 63.6 63.6 63.7 63.4 94 61.8 0.0 3.0 SSE 0.00 29.801
07/08/2005 9:00 p 63.3 63.3 63.3 63.5 63.3 94 61.5 0.0 3.0 SE 0.00 29.812
07/08/2005 9:30 p 63.2 63.2 63.2 63.3 63.1 94 61.4 0.0 3.0 SE 0.00 29.802
07/08/2005 10:00 p 63.1 63.1 63.1 63.2 63.0 95 61.6 0.0 4.0 SE 0.00 29.803
07/08/2005 10:30 p 63.2 63.2 63.2 63.3 63.0 96 62.0 0.0 2.0 SE 0.00 29.815
07/08/2005 11:00 p 63.3 63.3 63.3 63.3 63.2 97 62.4 0.0 0.0 --- 0.00 29.821
07/08/2005 11:30 p 63.3 63.3 63.3 63.3 63.2 97 62.4 0.0 0.0 --- 0.00 29.817
07/09/2005 12:00 a 63.2 63.2 63.2 63.3 63.1 98 62.6 0.0 0.0 --- 0.00 29.819
07/09/2005 12:30 a 63.1 63.1 63.1 63.2 63.0 98 62.5 0.0 0.0 --- 0.00 29.825
07/09/2005 1:00 a 62.9 62.9 62.9 63.1 62.7 97 62.0 0.0 0.0 --- 0.00 29.829
07/09/2005 1:30 a 62.3 62.3 62.3 62.7 61.9 97 61.4 0.0 0.0 --- 0.01 29.833
07/09/2005 2:00 a 61.9 61.9 61.9 62.1 61.8 98 61.3 0.0 0.0 --- 0.00 29.833
07/09/2005 2:30 a 62.0 62.0 62.0 62.2 61.7 98 61.4 0.0 0.0 --- 0.00 29.829
07/09/2005 3:00 a 61.5 61.5 61.5 61.7 61.4 98 60.9 0.0 0.0 --- 0.00 29.836
07/09/2005 3:30 a 61.3 61.3 61.3 61.4 61.1 98 60.7 0.0 0.0 --- 0.00 29.841
07/09/2005 4:00 a 61.3 61.3 61.3 61.3 61.2 98 60.7 0.0 0.0 --- 0.00 29.839
07/09/2005 4:30 a 61.2 61.2 61.2 61.4 61.0 98 60.6 0.0 0.0 --- 0.00 29.851
07/09/2005 5:00 a 60.7 60.7 60.7 61.0 60.4 98 60.1 0.0 0.0 --- 0.00 29.847
07/09/2005 5:30 a 60.2 60.2 60.2 60.4 59.9 98 59.6 0.0 0.0 --- 0.00 29.853
07/09/2005 6:00 a 59.8 59.8 59.8 59.9 59.8 98 59.2 0.0 0.0 --- 0.00 29.857
07/09/2005 6:30 a 60.0 60.0 60.0 60.2 59.8 98 59.4 0.0 0.0 --- 0.00 29.861
07/09/2005 7:00 a 60.7 60.7 60.7 61.3 60.2 99 60.4 0.0 0.0 --- 0.00 29.866
07/09/2005 7:30 a 62.3 62.3 62.3 63.4 61.3 99 62.0 0.0 0.0 --- 0.01 29.862
07/09/2005 8:00 a 64.2 64.2 64.2 65.0 63.4 96 63.0 0.0 1.0 ENE 0.00 29.867
07/09/2005 8:30 a 65.7 65.7 65.7 66.5 65.0 93 63.6 0.0 0.0 --- 0.00 29.867
07/09/2005 9:00 a 67.5 67.5 67.5 68.5 66.5 87 63.5 0.0 1.0 NNE 0.00 29.870
07/09/2005 9:30 a 71.0 69.3 69.3 70.0 68.5 84 64.3 0.0 4.0 NW 0.01 29.877
07/09/2005 10:00 a 73.0 70.8 70.8 71.4 70.0 80 64.3 0.0 4.0 NW 0.00 29.871
07/09/2005 10:30 a 73.4 72.2 72.2 72.9 71.4 77 64.6 0.0 5.0 SE 0.00 29.870
07/09/2005 11:00 a 74.3 73.3 73.3 73.7 72.9 73 64.1 0.0 5.0 SE 0.00 29.869
07/09/2005 11:30 a 76.0 74.4 74.4 75.0 73.7 70 64.0 1.0 5.0 SE 0.00 29.868
07/09/2005 12:00 p 77.4 75.9 75.9 76.6 75.0 67 64.2 0.0 4.0 SE 0.00 29.860
07/09/2005 12:30 p 77.6 77.4 77.4 78.0 76.6 63 63.8 0.0 4.0 ESE 0.00 29.857
07/09/2005 1:00 p 79.3 77.8 77.8 78.5 77.5 63 64.2 0.0 2.0 ESE 0.00 29.847
07/09/2005 1:30 p 82.2 79.5 79.5 80.0 78.6 62 65.4 0.0 3.0 SE 0.00 29.840
07/09/2005 2:00 p 82.2 80.8 80.8 81.5 79.6 56 63.7 0.0 4.0 SE 0.00 29.821
07/09/2005 2:30 p 83.1 81.8 81.8 81.9 81.5 51 61.9 0.0 4.0 SE 0.00 29.811
07/09/2005 3:00 p 83.8 80.8 80.8 81.7 78.3 64 67.5 0.0 5.0 S 0.00 29.851
07/09/2005 3:30 p 72.0 70.0 70.0 78.3 65.3 89 66.6 0.0 6.0 SE 0.00 29.842
07/09/2005 4:00 p 66.9 66.9 66.9 69.0 65.1 94 65.1 0.0 1.0 N 0.00 29.844
07/09/2005 4:30 p 72.2 70.0 70.0 70.6 69.0 91 67.3 0.0 2.0 NNE 0.00 29.844
07/09/2005 5:00 p 74.0 72.0 72.0 73.4 70.6 83 66.6 0.0 3.0 ESE 0.00 29.835
07/09/2005 5:30 p 76.0 73.8 73.8 74.2 73.4 79 66.9 0.0 4.0 ESE 0.00 29.834
07/09/2005 6:00 p 76.0 73.9 73.9 74.2 73.6 81 67.7 0.0 2.0 SE 0.00 29.827
07/09/2005 6:30 p 76.0 74.4 74.4 74.6 74.2 78 67.1 0.0 3.0 ESE 0.00 29.829
07/09/2005 7:00 p 76.0 74.3 74.3 74.5 74.2 73 65.1 0.0 2.0 ESE 0.00 29.830
07/09/2005 7:30 p 76.0 74.1 74.1 74.2 73.9 74 65.3 0.0 3.0 ESE 0.00 29.839
07/09/2005 8:00 p 76.0 73.6 73.6 74.0 73.1 76 65.6 0.0 2.0 ENE 0.00 29.852
07/09/2005 8:30 p 74.1 72.5 72.5 73.1 72.0 71 62.6 0.0 1.0 E 0.00 29.858
07/09/2005 9:00 p 72.6 71.2 71.2 72.0 70.2 78 64.0 0.0 0.0 --- 0.00 29.868
07/09/2005 9:30 p 71.0 69.2 69.2 70.1 68.3 83 63.8 0.0 0.0 --- 0.00 29.884
07/09/2005 10:00 p 67.8 67.8 67.8 68.4 67.2 86 63.5 0.0 0.0 --- 0.00 29.885
07/09/2005 10:30 p 66.5 66.5 66.5 67.2 66.0 88 62.8 0.0 0.0 --- 0.00 29.888
07/09/2005 11:00 p 65.9 65.9 65.9 66.1 65.8 88 62.3 0.0 0.0 --- 0.00 29.888
07/09/2005 11:30 p 65.4 65.4 65.4 65.8 64.9 90 62.4 0.0 0.0 --- 0.00 29.883
07/10/2005 12:00 a 64.5 64.5 64.5 64.9 64.0 92 62.1 0.0 0.0 --- 0.00 29.881
07/10/2005 12:30 a 63.8 63.8 63.8 64.1 63.5 93 61.7 0.0 0.0 --- 0.00 29.879
07/10/2005 1:00 a 63.4 63.4 63.4 63.5 63.3 94 61.6 0.0 0.0 --- 0.01 29.879
07/10/2005 1:30 a 63.8 63.8 63.8 64.2 63.4 94 62.0 0.0 0.0 --- 0.00 29.878
07/10/2005 2:00 a 64.5 64.5 64.5 64.8 64.2 90 61.5 0.0 0.0 --- 0.00 29.874
07/10/2005 2:30 a 64.8 64.8 64.8 64.9 64.6 89 61.5 0.0 0.0 --- 0.00 29.866
07/10/2005 3:00 a 64.2 64.2 64.2 64.6 63.9 90 61.2 0.0 0.0 --- 0.00 29.866
07/10/2005 3:30 a 63.5 63.5 63.5 63.9 63.1 92 61.1 0.0 0.0 --- 0.00 29.865
07/10/2005 4:00 a 63.0 63.0 63.0 63.2 63.0 92 60.6 0.0 0.0 --- 0.00 29.864
07/10/2005 4:30 a 63.3 63.3 63.3 63.4 63.1 92 60.9 0.0 0.0 --- 0.00 29.868
07/10/2005 5:00 a 63.3 63.3 63.3 63.4 63.2 92 60.9 0.0 0.0 --- 0.00 29.873
07/10/2005 5:30 a 63.1 63.1 63.1 63.2 62.9 93 61.0 0.0 0.0 --- 0.00 29.882
07/10/2005 6:00 a 62.7 62.7 62.7 62.9 62.5 94 61.0 0.0 0.0 --- 0.00 29.878
07/10/2005 6:30 a 62.8 62.8 62.8 63.3 62.5 94 61.1 0.0 0.0 --- 0.00 29.878
07/10/2005 7:00 a 64.2 64.2 64.2 64.8 63.3 91 61.5 0.0 0.0 --- 0.00 29.890
07/10/2005 7:30 a 65.9 65.9 65.9 67.6 64.8 87 61.9 0.0 0.0 --- 0.00 29.891
07/10/2005 8:00 a 71.0 68.7 68.7 69.8 67.6 82 63.0 0.0 0.0 --- 0.00 29.899
07/10/2005 8:30 a 71.8 70.8 70.8 72.0 69.8 74 62.1 0.0 1.0 E 0.00 29.898
07/10/2005 9:00 a 75.0 73.8 73.8 75.2 72.0 65 61.3 0.0 4.0 SE 0.00 29.898
07/10/2005 9:30 a 76.0 76.0 76.0 77.0 75.2 60 61.1 0.0 4.0 SE 0.00 29.902
07/10/2005 10:00 a 78.6 77.9 77.9 79.1 76.9 56 61.0 0.0 4.0 ESE 0.00 29.901
07/10/2005 10:30 a 80.6 80.0 80.0 80.5 79.1 53 61.4 1.0 8.0 SE 0.00 29.901
07/10/2005 11:00 a 80.6 80.4 80.4 80.6 80.0 53 61.7 1.0 4.0 SE 0.00 29.904
07/10/2005 11:30 a 83.0 82.1 82.1 83.6 80.3 50 61.6 0.0 6.0 ESE 0.00 29.906
07/10/2005 12:00 p 85.2 84.7 84.7 85.8 83.6 41 58.4 1.0 4.0 SE 0.00 29.904
07/10/2005 12:30 p 86.6 86.8 86.8 87.5 85.8 38 58.2 1.0 7.0 SE 0.00 29.897
07/10/2005 1:00 p 87.0 88.3 88.3 89.0 87.5 35 57.2 1.0 5.0 SE 0.00 29.897
07/10/2005 1:30 p 87.9 89.3 89.3 89.8 89.0 33 56.5 1.0 7.0 SE 0.00 29.888
07/10/2005 2:00 p 89.9 90.2 90.2 90.9 89.6 33 57.2 1.0 7.0 SE 0.00 29.882
07/10/2005 2:30 p 91.8 90.8 90.8 91.0 90.7 34 58.6 1.0 6.0 SE 0.00 29.878
07/10/2005 3:00 p 91.8 90.6 90.6 90.9 90.2 34 58.4 1.0 6.0 SE 0.00 29.881
07/10/2005 3:30 p 90.2 90.2 90.2 90.3 90.1 34 58.1 1.0 5.0 SE 0.00 29.873
07/10/2005 4:00 p 90.2 90.1 90.1 90.3 90.0 34 58.0 1.0 5.0 SE 0.00 29.867
07/10/2005 4:30 p 89.9 89.9 89.9 90.2 89.6 33 57.0 1.0 4.0 SE 0.00 29.868
07/10/2005 5:00 p 87.9 89.3 89.3 89.7 88.9 33 56.5 0.0 4.0 SE 0.00 29.866
07/10/2005 5:30 p 88.2 88.7 88.7 89.0 88.3 34 56.8 0.0 5.0 SE 0.00 29.864
07/10/2005 6:00 p 86.6 88.0 88.0 88.3 87.6 33 55.3 0.0 4.0 SE 0.00 29.861
07/10/2005 6:30 p 86.4 87.3 87.3 87.7 86.9 37 57.9 0.0 3.0 NNW 0.00 29.862
07/10/2005 7:00 p 86.0 86.3 86.3 86.9 85.5 40 59.2 0.0 2.0 ESE 0.00 29.861
07/10/2005 7:30 p 85.8 84.6 84.6 85.5 83.6 44 60.3 0.0 0.0 --- 0.00 29.868
07/10/2005 8:00 p 84.6 82.9 82.9 83.6 81.9 48 61.2 0.0 0.0 --- 0.00 29.874
07/10/2005 8:30 p 81.6 80.3 80.3 81.9 78.3 58 64.2 0.0 0.0 --- 0.00 29.880
07/10/2005 9:00 p 77.8 76.8 76.8 78.3 75.3 64 63.7 0.0 0.0 --- 0.00 29.884
07/10/2005 9:30 p 76.2 74.5 74.5 75.3 73.7 66 62.4 0.0 0.0 --- 0.00 29.892
07/10/2005 10:00 p 74.0 73.3 73.3 73.7 72.9 70 62.9 0.0 0.0 --- 0.00 29.904
07/10/2005 10:30 p 72.8 72.0 72.0 73.0 71.1 74 63.3 0.0 0.0 --- 0.00 29.903
07/10/2005 11:00 p 72.2 70.7 70.7 71.1 70.4 76 62.8 0.0 0.0 --- 0.00 29.902
07/10/2005 11:30 p 71.2 70.2 70.2 70.4 70.0 76 62.3 0.0 0.0 --- 0.00 29.899
07/11/2005 12:00 a 72.2 70.5 70.5 70.9 70.1 76 62.6 0.0 0.0 --- 0.00 29.899
07/11/2005 12:30 a 71.8 69.5 69.5 70.2 68.7 79 62.7 0.0 0.0 --- 0.00 29.896
07/11/2005 1:00 a 70.0 68.4 68.4 68.7 67.9 80 62.0 0.0 0.0 --- 0.00 29.902
07/11/2005 1:30 a 67.3 67.3 67.3 67.9 66.9 82 61.6 0.0 0.0 --- 0.00 29.901
07/11/2005 2:00 a 66.4 66.4 66.4 67.0 65.8 85 61.8 0.0 0.0 --- 0.00 29.895
07/11/2005 2:30 a 65.2 65.2 65.2 65.8 64.8 86 60.9 0.0 0.0 --- 0.00 29.891
07/11/2005 3:00 a 64.5 64.5 64.5 64.8 64.1 88 60.9 0.0 0.0 --- 0.00 29.887
07/11/2005 3:30 a 63.7 63.7 63.7 64.1 63.5 90 60.7 0.0 0.0 --- 0.00 29.882
07/11/2005 4:00 a 63.2 63.2 63.2 63.5 62.9 90 60.2 0.0 0.0 --- 0.00 29.876
07/11/2005 4:30 a 62.6 62.6 62.6 63.0 62.3 90 59.6 0.0 0.0 --- 0.00 29.877
07/11/2005 5:00 a 62.1 62.1 62.1 62.3 61.9 92 59.8 0.0 0.0 --- 0.00 29.879
07/11/2005 5:30 a 61.7 61.7 61.7 61.9 61.5 91 59.1 0.0 0.0 --- 0.00 29.883
07/11/2005 6:00 a 61.2 61.2 61.2 61.5 61.1 92 58.9 0.0 0.0 --- 0.00 29.888
07/11/2005 6:30 a 61.2 61.2 61.2 61.5 61.1 94 59.5 0.0 0.0 --- 0.00 29.894
07/11/2005 7:00 a 62.3 62.3 62.3 63.3 61.5 92 60.0 0.0 0.0 --- 0.00 29.901
07/11/2005 7:30 a 64.8 64.8 64.8 67.1 63.3 84 59.9 0.0 0.0 --- 0.00 29.903
07/11/2005 8:00 a 71.0 68.9 68.9 70.1 67.1 80 62.5 0.0 0.0 --- 0.00 29.908
07/11/2005 8:30 a 71.0 71.4 71.4 73.0 70.1 68 60.3 0.0 0.0 --- 0.00 29.906
07/11/2005 9:00 a 75.0 74.4 74.4 75.6 73.0 65 61.9 0.0 0.0 --- 0.00 29.902
07/11/2005 9:30 a 77.4 76.9 76.9 78.0 75.6 62 62.9 0.0 0.0 --- 0.00 29.902
07/11/2005 10:00 a 80.0 79.3 79.3 80.6 78.0 55 61.7 0.0 0.0 --- 0.00 29.902
07/11/2005 10:30 a 81.2 81.4 81.4 82.1 80.6 51 61.6 0.0 0.0 --- 0.55 29.896
07/11/2005 11:00 a 85.0 82.7 82.7 83.3 82.1 51 62.7 0.0 2.0 NNE 0.00 29.894
07/11/2005 11:30 a 84.2 84.1 84.1 85.0 83.3 41 57.9 0.0 3.0 ESE 0.00 29.885
07/11/2005 12:00 p 86.6 86.0 86.0 86.7 85.0 43 60.9 1.0 4.0 ESE 0.00 29.878
07/11/2005 12:30 p 87.3 87.3 87.3 88.0 86.7 41 60.7 1.0 4.0 SE 0.00 29.870
07/11/2005 1:00 p 90.4 88.3 88.3 88.5 88.0 46 64.9 0.0 4.0 SE 0.00 29.860
07/11/2005 1:30 p 92.0 89.0 89.0 89.8 88.4 45 64.9 0.0 5.0 SE 0.00 29.851
07/11/2005 2:00 p 92.9 90.2 90.2 90.6 89.8 43 64.7 0.0 4.0 SSE 0.00 29.844
07/11/2005 2:30 p 94.8 90.5 90.5 90.8 90.3 46 66.9 1.0 4.0 SE 0.00 29.831
07/11/2005 3:00 p 94.2 90.5 90.5 90.8 90.1 44 65.6 1.0 5.0 SE 0.00 29.822
07/11/2005 3:30 p 93.8 90.1 90.1 90.3 90.0 46 66.5 1.0 4.0 SE 0.00 29.813
07/11/2005 4:00 p 94.1 90.2 90.2 90.4 90.0 47 67.3 0.0 4.0 SE 0.00 29.815
07/11/2005 4:30 p 93.8 90.1 90.1 90.2 90.0 46 66.5 0.0 5.0 SE 0.00 29.808
07/11/2005 5:00 p 94.4 89.8 89.8 90.0 89.5 48 67.5 0.0 3.0 ESE 0.00 29.805
07/11/2005 5:30 p 93.2 89.2 89.2 89.5 89.0 48 67.0 0.0 4.0 ESE 0.00 29.808
07/11/2005 6:00 p 94.6 88.7 88.7 89.0 88.1 52 68.8 0.0 3.0 E 0.00 29.804
07/11/2005 6:30 p 92.9 87.8 87.8 88.0 87.4 53 68.6 0.0 3.0 E 0.00 29.803
07/11/2005 7:00 p 91.8 86.9 86.9 87.4 86.5 56 69.3 0.0 0.0 --- 0.00 29.809
07/11/2005 7:30 p 90.4 86.0 86.0 86.5 85.5 58 69.5 0.0 0.0 --- 0.00 29.813
07/11/2005 8:00 p 88.8 85.1 85.1 85.5 84.6 59 69.2 0.0 0.0 --- 0.00 29.818
07/11/2005 8:30 p 88.6 83.9 83.9 84.6 82.8 64 70.4 0.0 0.0 --- 0.00 29.824
07/11/2005 9:00 p 87.0 81.7 81.7 82.8 80.7 70 71.0 0.0 0.0 --- 0.00 29.830
07/11/2005 9:30 p 83.4 79.7 79.7 80.7 78.7 72 69.9 0.0 0.0 --- 0.00 29.839
07/11/2005 10:00 p 81.2 78.2 78.2 78.7 77.6 76 70.0 0.0 0.0 --- 0.00 29.843
07/11/2005 10:30 p 80.6 77.1 77.1 77.6 76.6 78 69.7 0.0 0.0 --- 0.00 29.841
07/11/2005 11:00 p 78.9 76.2 76.2 76.6 75.6 79 69.2 0.0 0.0 --- 0.00 29.836
07/11/2005 11:30 p 77.2 75.3 75.3 75.6 74.9 82 69.4 0.0 0.0 --- 0.00 29.843
07/12/2005 12:00 a 77.3 74.9 74.9 75.0 74.7 83 69.4 0.0 0.0 --- 0.00 29.836
07/12/2005 12:30 a 76.0 74.2 74.2 74.7 73.8 85 69.4 0.0 0.0 --- 0.00 29.838
07/12/2005 1:00 a 76.0 73.6 73.6 73.8 73.4 85 68.8 0.0 0.0 --- 0.00 29.838
07/12/2005 1:30 a 75.0 73.1 73.1 73.4 72.5 87 69.0 0.0 0.0 --- 0.00 29.839
07/12/2005 2:00 a 74.0 72.3 72.3 72.5 72.2 88 68.6 0.0 0.0 --- 0.00 29.839
07/12/2005 2:30 a 74.0 72.0 72.0 72.2 71.7 89 68.6 0.0 0.0 --- 0.00 29.839
07/12/2005 3:00 a 73.0 71.4 71.4 71.7 71.1 90 68.3 0.0 0.0 --- 0.00 29.843
07/12/2005 3:30 a 73.4 70.8 70.8 71.1 70.6 92 68.4 0.0 0.0 --- 0.00 29.843
07/12/2005 4:00 a 73.6 70.5 70.5 70.6 70.5 93 68.4 0.0 0.0 --- 0.00 29.847
07/12/2005 4:30 a 73.4 70.6 70.6 70.6 70.5 92 68.2 0.0 0.0 --- 0.00 29.853
07/12/2005 5:00 a 72.6 70.2 70.2 70.5 69.9 93 68.1 0.0 0.0 --- 0.00 29.858
07/12/2005 5:30 a 72.6 69.9 69.9 70.0 69.8 93 67.8 0.0 0.0 --- 0.00 29.863
07/12/2005 6:00 a 72.8 69.6 69.6 69.8 69.4 94 67.8 0.0 0.0 --- 0.00 29.867
07/12/2005 6:30 a 71.4 69.4 69.4 69.5 69.4 94 67.6 0.0 0.0 --- 0.00 29.874
07/12/2005 7:00 a 72.8 69.7 69.7 70.2 69.5 94 67.9 0.0 0.0 --- 0.00 29.876
07/12/2005 7:30 a 73.8 70.7 70.7 71.6 70.2 94 68.9 0.0 0.0 --- 0.00 29.886
07/12/2005 8:00 a 75.0 73.1 73.1 74.6 71.6 85 68.3 0.0 0.0 --- 0.00 29.893
07/12/2005 8:30 a 79.0 75.9 75.9 77.0 74.7 80 69.3 0.0 2.0 --- 0.00 29.890
07/12/2005 9:00 a 81.4 78.6 78.6 80.2 77.0 72 68.8 0.0 0.0 --- 0.00 29.891
07/12/2005 9:30 a 85.4 80.7 80.7 80.9 80.3 72 70.8 0.0 0.0 --- 0.00 29.893
07/12/2005 10:00 a 85.4 80.5 80.5 80.8 80.3 72 70.6 0.0 0.0 --- 0.00 29.899
07/12/2005 10:30 a 83.8 82.2 82.2 83.9 80.8 58 66.0 0.0 0.0 --- 0.00 29.895
07/12/2005 11:00 a 88.4 84.7 84.7 84.9 83.9 57 67.8 0.0 0.0 --- 0.00 29.896
07/12/2005 11:30 a 87.0 84.4 84.4 84.7 84.0 60 69.0 0.0 0.0 --- 0.00 29.907
07/12/2005 12:00 p 85.4 83.1 83.1 84.0 82.4 61 68.3 0.0 0.0 --- 0.00 29.905
07/12/2005 12:30 p 84.0 82.0 82.0 82.5 81.5 60 66.8 0.0 0.0 --- 0.00 29.906
07/12/2005 1:00 p 84.0 82.0 82.0 82.3 81.7 60 66.8 0.0 0.0 --- 0.00 29.904
07/12/2005 1:30 p 84.3 81.7 81.7 82.0 81.5 61 67.0 0.0 0.0 --- 0.00 29.896
07/12/2005 2:00 p 83.9 82.1 82.1 82.3 81.7 59 66.4 0.0 0.0 --- 0.00 29.894
07/12/2005 2:30 p 83.6 82.3 82.3 82.6 82.1 56 65.1 0.0 0.0 --- 0.00 29.892
07/12/2005 3:00 p 85.5 81.7 81.7 82.1 81.6 65 68.8 0.0 0.0 --- 0.00 29.890
07/12/2005 3:30 p 84.0 81.0 81.0 81.6 79.9 65 68.1 0.0 0.0 --- 0.00 29.883
07/12/2005 4:00 p 82.4 80.2 80.2 80.4 79.8 64 66.9 0.0 0.0 --- 0.00 29.884
07/12/2005 4:30 p 82.5 79.9 79.9 80.1 79.8 65 67.1 0.0 0.0 --- 0.00 29.888
07/12/2005 5:00 p 81.0 79.1 79.1 79.8 78.3 67 67.2 0.0 0.0 --- 0.00 29.876
07/12/2005 5:30 p 79.9 77.7 77.7 78.3 77.2 69 66.7 0.0 0.0 --- 0.00 29.880
07/12/2005 6:00 p 78.8 76.7 76.7 77.2 76.2 69 65.8 0.0 0.0 --- 0.00 29.885
07/12/2005 6:30 p 78.0 75.7 75.7 76.2 75.2 70 65.2 0.0 0.0 --- 0.00 29.892
07/12/2005 7:00 p 77.0 74.9 74.9 75.2 74.5 71 64.9 0.0 0.0 --- 0.00 29.908
07/12/2005 7:30 p 76.0 73.9 73.9 74.5 73.2 74 65.1 0.0 0.0 --- 0.00 29.915
07/12/2005 8:00 p 74.5 72.7 72.7 73.2 72.3 75 64.3 0.0 0.0 --- 0.00 29.917
07/12/2005 8:30 p 73.2 71.9 71.9 72.3 71.6 76 63.9 0.0 0.0 --- 0.00 29.911
07/12/2005 9:00 p 72.6 71.3 71.3 71.6 71.1 78 64.1 0.0 0.0 --- 0.00 29.918
07/12/2005 9:30 p 72.6 70.8 70.8 71.1 70.7 78 63.6 0.0 0.0 --- 0.00 29.925
07/12/2005 10:00 p 72.6 70.7 70.7 70.8 70.7 78 63.5 0.0 0.0 --- 0.00 29.938
07/12/2005 10:30 p 73.0 70.6 70.6 70.8 70.4 80 64.1 0.0 0.0 --- 0.00 29.934
07/12/2005 11:00 p 72.0 70.2 70.2 70.4 70.0 82 64.5 0.0 0.0 --- 0.00 29.938
07/12/2005 11:30 p 72.0 70.0 70.0 70.0 70.0 83 64.6 0.0 0.0 --- 0.00 29.934
07/13/2005 12:00 a 72.0 69.8 69.8 70.0 69.7 84 64.8 0.0 0.0 --- 0.00 29.929
07/13/2005 12:30 a 71.0 69.4 69.4 69.7 69.1 85 64.7 0.0 0.0 --- 0.00 29.924
07/13/2005 1:00 a 71.0 68.6 68.6 69.1 68.3 87 64.6 0.0 0.0 --- 0.00 29.907
07/13/2005 1:30 a 70.0 68.1 68.1 68.3 68.0 88 64.4 0.0 0.0 --- 0.00 29.903
07/13/2005 2:00 a 70.0 68.0 68.0 68.1 67.8 89 64.6 0.0 0.0 --- 0.00 29.896
07/13/2005 2:30 a 67.8 67.8 67.8 67.8 67.8 90 64.8 0.0 0.0 --- 0.00 29.888
07/13/2005 3:00 a 67.7 67.7 67.7 67.8 67.5 91 65.0 0.0 0.0 --- 0.00 29.875
07/13/2005 3:30 a 67.2 67.2 67.2 67.5 67.0 92 64.8 0.0 0.0 --- 0.00 29.872
07/13/2005 4:00 a 66.9 66.9 66.9 67.0 66.8 93 64.8 0.0 0.0 --- 0.00 29.866
07/13/2005 4:30 a 66.9 66.9 66.9 67.0 66.8 93 64.8 0.0 0.0 --- 0.00 29.870
07/13/2005 5:00 a 67.2 67.2 67.2 67.5 67.0 94 65.4 0.0 0.0 --- 0.00 29.870
07/13/2005 5:30 a 70.0 68.0 68.0 68.3 67.5 93 65.9 0.0 0.0 --- 0.00 29.871
07/13/2005 6:00 a 71.2 68.6 68.6 68.8 68.3 92 66.2 0.0 0.0 --- 0.00 29.872
07/13/2005 6:30 a 71.2 68.9 68.9 69.1 68.8 92 66.5 0.0 0.0 --- 0.00 29.872
07/13/2005 7:00 a 71.1 69.3 69.3 69.6 69.0 91 66.6 0.0 0.0 --- 0.00 29.868
07/13/2005 7:30 a 72.0 69.8 69.8 70.2 69.5 89 66.4 0.0 0.0 --- 0.00 29.886
07/13/2005 8:00 a 73.0 70.5 70.5 70.8 70.2 88 66.8 0.0 0.0 --- 0.00 29.889
07/13/2005 8:30 a 73.0 71.3 71.3 71.9 70.8 85 66.6 0.0 1.0 NE 0.00 29.886
07/13/2005 9:00 a 74.0 72.3 72.3 72.7 71.9 83 66.9 0.0 1.0 NE 0.00 29.888
07/13/2005 9:30 a 75.0 72.8 72.8 73.0 72.6 84 67.7 0.0 0.0 --- 0.00 29.885
07/13/2005 10:00 a 75.0 73.4 73.4 73.7 73.0 81 67.2 0.0 0.0 --- 0.00 29.882
07/13/2005 10:30 a 76.0 74.1 74.1 74.5 73.7 80 67.5 0.0 0.0 --- 0.00 29.875
07/13/2005 11:00 a 77.2 74.5 74.5 74.7 74.3 82 68.6 0.0 0.0 --- 0.00 29.886
07/13/2005 11:30 a 76.0 73.5 73.5 74.3 72.6 90 70.4 0.0 0.0 --- 0.10 29.875
07/13/2005 12:00 p 74.8 72.1 72.1 72.6 72.0 94 70.3 0.0 0.0 --- 0.01 29.875
07/13/2005 12:30 p 75.4 72.6 72.6 72.8 72.3 92 70.1 0.0 0.0 --- 0.00 29.868
07/13/2005 1:00 p 75.8 72.9 72.9 72.9 72.8 94 71.1 0.0 0.0 --- 0.00 29.865
07/13/2005 1:30 p 75.6 72.8 72.8 72.9 72.8 93 70.7 0.0 0.0 --- 0.00 29.858
07/13/2005 2:00 p 75.4 73.0 73.0 73.4 72.8 92 70.5 0.0 0.0 --- 0.00 29.848
07/13/2005 2:30 p 76.4 73.6 73.6 73.8 73.3 92 71.1 0.0 0.0 --- 0.00 29.852
07/13/2005 3:00 p 76.2 74.1 74.1 74.4 73.8 91 71.3 0.0 2.0 NNE 0.00 29.853
07/13/2005 3:30 p 77.7 74.9 74.9 75.5 74.4 87 70.8 0.0 1.0 NNE 0.00 29.850
07/13/2005 4:00 p 79.7 75.9 75.9 76.2 75.4 87 71.8 0.0 0.0 --- 0.00 29.837
07/13/2005 4:30 p 79.6 76.2 76.2 76.2 76.1 86 71.7 0.0 0.0 --- 0.00 29.818
07/13/2005 5:00 p 79.8 76.1 76.1 76.2 76.1 88 72.3 0.0 0.0 --- 0.00 29.815
07/13/2005 5:30 p 79.8 76.0 76.0 76.1 75.8 88 72.2 0.0 0.0 --- 0.00 29.823
07/13/2005 6:00 p 79.8 75.5 75.5 75.8 75.3 88 71.7 0.0 0.0 --- 0.00 29.817
07/13/2005 6:30 p 77.9 75.1 75.1 75.3 75.1 89 71.6 0.0 2.0 NNE 0.00 29.817
07/13/2005 7:00 p 77.8 75.0 75.0 75.1 74.9 88 71.2 0.0 0.0 --- 0.00 29.827
07/13/2005 7:30 p 76.0 74.4 74.4 75.0 73.8 89 71.0 0.0 2.0 NNE 0.00 29.835
07/13/2005 8:00 p 75.0 73.4 73.4 73.8 73.2 90 70.3 0.0 1.0 --- 0.00 29.840
07/13/2005 8:30 p 75.4 73.0 73.0 73.2 72.7 92 70.5 0.0 0.0 --- 0.00 29.842
07/13/2005 9:00 p 75.6 72.5 72.5 72.7 72.3 93 70.4 0.0 0.0 --- 0.00 29.844
07/13/2005 9:30 p 74.8 72.3 72.3 72.3 72.2 94 70.5 0.0 0.0 --- 0.00 29.847
07/13/2005 10:00 p 74.8 72.3 72.3 72.4 72.2 94 70.5 0.0 0.0 --- 0.00 29.867
07/13/2005 10:30 p 75.8 72.5 72.5 72.6 72.4 94 70.7 0.0 0.0 --- 0.00 29.862
07/13/2005 11:00 p 75.8 72.7 72.7 72.8 72.6 94 70.9 0.0 0.0 --- 0.00 29.866
07/13/2005 11:30 p 75.8 72.7 72.7 72.8 72.6 94 70.9 0.0 0.0 --- 0.00 29.867
07/14/2005 12:00 a 75.8 72.6 72.6 72.7 72.5 94 70.8 0.0 0.0 --- 0.00 29.861
07/14/2005 12:30 a 75.8 72.5 72.5 72.6 72.5 94 70.7 0.0 0.0 --- 0.00 29.865
07/14/2005 1:00 a 75.8 72.6 72.6 72.6 72.5 94 70.8 0.0 0.0 --- 0.00 29.867
07/14/2005 1:30 a 75.8 72.6 72.6 72.6 72.6 94 70.8 0.0 0.0 --- 0.00 29.870
07/14/2005 2:00 a 76.0 72.5 72.5 72.6 72.5 95 71.0 0.0 0.0 --- 0.00 29.859
07/14/2005 2:30 a 75.8 72.5 72.5 72.5 72.4 94 70.7 0.0 0.0 --- 0.00 29.849
07/14/2005 3:00 a 75.0 72.2 72.2 72.4 72.0 95 70.7 0.0 0.0 --- 0.00 29.847
07/14/2005 3:30 a 75.0 71.9 71.9 72.0 71.9 95 70.4 0.0 0.0 --- 0.00 29.853
07/14/2005 4:00 a 75.0 72.0 72.0 72.1 71.9 95 70.5 0.0 0.0 --- 0.00 29.847
07/14/2005 4:30 a 75.0 72.2 72.2 72.2 72.1 95 70.7 0.0 0.0 --- 0.00 29.842
07/14/2005 5:00 a 75.0 72.2 72.2 72.3 72.2 95 70.7 0.0 0.0 --- 0.00 29.848
07/14/2005 5:30 a 75.0 72.2 72.2 72.3 72.2 95 70.7 0.0 0.0 --- 0.00 29.849
07/14/2005 6:00 a 75.0 72.1 72.1 72.2 71.9 95 70.6 0.0 0.0 --- 0.00 29.858
07/14/2005 6:30 a 75.2 72.0 72.0 72.1 71.9 96 70.8 0.0 0.0 --- 0.00 29.864
07/14/2005 7:00 a 75.0 72.3 72.3 72.6 72.1 95 70.8 0.0 0.0 --- 0.00 29.865
07/14/2005 7:30 a 75.8 72.9 72.9 73.3 72.6 94 71.1 0.0 0.0 --- 0.00 29.869
07/14/2005 8:00 a 76.4 73.7 73.7 74.2 73.3 92 71.2 0.0 1.0 --- 0.00 29.869
07/14/2005 8:30 a 77.8 74.7 74.7 75.3 74.2 88 70.9 0.0 1.0 NNE 0.00 29.872
07/14/2005 9:00 a 79.2 76.0 76.0 76.2 75.3 82 70.1 0.0 2.0 NNE 0.00 29.874
07/14/2005 9:30 a 79.2 76.2 76.2 76.3 76.2 82 70.3 0.0 1.0 --- 0.00 29.875
07/14/2005 10:00 a 79.3 76.3 76.3 76.5 76.2 83 70.8 0.0 2.0 NNE 0.00 29.876
07/14/2005 10:30 a 81.0 76.5 76.5 77.4 76.2 82 70.6 0.0 2.0 NNE 0.00 29.873
07/14/2005 11:00 a 81.8 78.5 78.5 79.1 77.4 74 69.5 0.0 3.0 NNW 0.00 29.871
07/14/2005 11:30 a 82.0 78.8 78.8 79.1 78.7 75 70.2 0.0 1.0 NNW 0.00 29.871
07/14/2005 12:00 p 81.4 79.3 79.3 79.6 79.1 72 69.5 0.0 3.0 NNW 0.00 29.866
07/14/2005 12:30 p 82.0 79.3 79.3 79.5 79.1 75 70.7 0.0 0.0 --- 0.00 29.853
07/14/2005 1:00 p 85.2 80.6 80.6 81.1 79.5 71 70.3 0.0 2.0 NNW 0.00 29.848
07/14/2005 1:30 p 85.2 81.3 81.3 81.7 80.5 71 71.0 0.0 2.0 NNW 0.00 29.853
07/14/2005 2:00 p 87.0 81.9 81.9 82.3 81.5 70 71.2 0.0 1.0 NNW 0.00 29.853
07/14/2005 2:30 p 87.0 81.5 81.5 82.0 81.2 70 70.8 0.0 1.0 NNW 0.00 29.853
07/14/2005 3:00 p 86.4 82.4 82.4 83.4 81.6 68 70.8 0.0 3.0 NNW 0.00 29.838
07/14/2005 3:30 p 89.8 83.5 83.5 83.7 83.2 67 71.4 0.0 3.0 NE 0.00 29.832
07/14/2005 4:00 p 87.4 83.0 83.0 83.2 82.8 66 70.5 0.0 2.0 NNE 0.00 29.821
07/14/2005 4:30 p 87.4 83.4 83.4 84.0 83.1 66 70.9 0.0 2.0 NNE 0.00 29.812
07/14/2005 5:00 p 90.6 83.6 83.6 84.0 83.0 69 72.4 0.0 1.0 NNE 0.00 29.812
07/14/2005 5:30 p 89.2 82.7 82.7 83.0 82.5 71 72.3 0.0 2.0 NNE 0.00 29.803
07/14/2005 6:00 p 87.6 82.1 82.1 82.6 81.9 73 72.6 0.0 2.0 N 0.00 29.813
07/14/2005 6:30 p 88.2 81.6 81.6 81.9 81.3 76 73.3 0.0 3.0 N 0.00 29.807
07/14/2005 7:00 p 86.2 81.2 81.2 81.3 81.1 76 72.9 0.0 2.0 N 0.00 29.810
07/14/2005 7:30 p 86.6 80.6 80.6 81.1 80.1 78 73.1 0.0 1.0 N 0.00 29.813
07/14/2005 8:00 p 84.8 79.9 79.9 80.1 79.6 79 72.8 0.0 0.0 --- 0.00 29.824
07/14/2005 8:30 p 83.0 79.2 79.2 79.6 78.7 80 72.5 0.0 1.0 N 0.00 29.831
07/14/2005 9:00 p 82.1 78.4 78.4 78.7 78.1 81 72.1 0.0 0.0 --- 0.00 29.846
07/14/2005 9:30 p 82.3 77.7 77.7 78.1 77.2 83 72.1 0.0 0.0 --- 0.00 29.853
07/14/2005 10:00 p 81.0 76.7 76.7 77.2 76.3 86 72.2 0.0 0.0 --- 0.00 29.865
07/14/2005 10:30 p 79.7 76.0 76.0 76.3 75.8 87 71.9 0.0 0.0 --- 0.00 29.860
07/14/2005 11:00 p 79.8 75.5 75.5 75.8 75.3 88 71.7 0.0 1.0 N 0.00 29.854
07/14/2005 11:30 p 77.9 75.1 75.1 75.3 75.0 89 71.6 0.0 0.0 --- 0.00 29.857
07/15/2005 12:00 a 78.1 74.8 74.8 75.0 74.6 91 72.0 0.0 0.0 --- 0.00 29.850
07/15/2005 12:30 a 76.4 74.3 74.3 74.6 74.2 92 71.8 0.0 0.0 --- 0.00 29.838
07/15/2005 1:00 a 76.4 74.2 74.2 74.2 74.1 92 71.7 0.0 0.0 --- 0.00 29.841
07/15/2005 1:30 a 76.6 74.1 74.1 74.1 74.0 93 72.0 0.0 0.0 --- 0.00 29.852
07/15/2005 2:00 a 76.6 73.9 73.9 74.0 73.9 93 71.8 0.0 1.0 N 0.00 29.850
07/15/2005 2:30 a 76.6 74.1 74.1 74.1 74.0 93 72.0 0.0 0.0 --- 0.00 29.847
07/15/2005 3:00 a 76.6 74.0 74.0 74.1 73.8 93 71.9 0.0 0.0 --- 0.00 29.846
07/15/2005 3:30 a 76.6 73.6 73.6 73.8 73.4 93 71.5 0.0 0.0 --- 0.00 29.847
07/15/2005 4:00 a 75.8 73.3 73.3 73.4 73.3 94 71.5 0.0 0.0 --- 0.00 29.850
07/15/2005 4:30 a 75.8 73.3 73.3 73.4 73.2 94 71.5 0.0 0.0 --- 0.00 29.868
07/15/2005 5:00 a 76.8 73.5 73.5 73.6 73.4 94 71.7 0.0 0.0 --- 0.00 29.874
07/15/2005 5:30 a 76.8 73.6 73.6 73.6 73.5 94 71.8 0.0 0.0 --- 0.00 29.875
07/15/2005 6:00 a 76.8 73.5 73.5 73.6 73.5 94 71.7 0.0 0.0 --- 0.00 29.885
07/15/2005 6:30 a 76.8 73.6 73.6 73.8 73.5 94 71.8 0.0 0.0 --- 0.00 29.890
07/15/2005 7:00 a 76.6 73.9 73.9 74.1 73.7 93 71.8 0.0 0.0 --- 0.00 29.901
07/15/2005 7:30 a 76.6 74.2 74.2 74.3 74.1 93 72.0 0.0 0.0 --- 0.00 29.909
07/15/2005 8:00 a 77.9 74.9 74.9 75.4 74.3 89 71.4 0.0 2.0 N 0.00 29.911
07/15/2005 8:30 a 79.6 75.6 75.6 75.9 75.4 86 71.1 0.0 0.0 --- 0.00 29.907
07/15/2005 9:00 a 79.5 76.3 76.3 77.0 75.9 85 71.5 0.0 0.0 --- 0.00 29.906
07/15/2005 9:30 a 81.0 77.4 77.4 77.5 77.0 84 72.2 0.0 0.0 --- 0.00 29.897
07/15/2005 10:00 a 82.3 77.5 77.5 77.6 77.4 83 71.9 0.0 0.0 --- 0.00 29.898
07/15/2005 10:30 a 82.3 77.7 77.7 77.9 77.6 83 72.1 0.0 0.0 --- 0.00 29.906
07/15/2005 11:00 a 82.3 78.1 78.1 78.5 77.9 83 72.5 0.0 0.0 --- 0.00 29.909
07/15/2005 11:30 a 83.2 78.7 78.7 79.0 78.5 81 72.4 0.0 0.0 --- 0.00 29.915
07/15/2005 12:00 p 84.8 79.5 79.5 80.0 78.9 79 72.4 0.0 0.0 --- 0.00 29.908
07/15/2005 12:30 p 86.4 80.7 80.7 81.3 80.0 77 72.8 0.0 0.0 --- 0.00 29.902
07/15/2005 1:00 p 88.0 81.8 81.8 82.2 81.3 75 73.1 0.0 0.0 --- 0.00 29.896
07/15/2005 1:30 p 90.2 83.5 83.5 84.6 82.2 68 71.8 0.0 2.0 NE 0.00 29.890
07/15/2005 2:00 p 92.6 84.5 84.5 84.9 84.2 69 73.2 0.0 3.0 N 0.00 29.891
07/15/2005 2:30 p 91.0 84.8 84.8 85.3 84.5 65 71.7 1.0 3.0 N 0.00 29.887
07/15/2005 3:00 p 91.4 85.0 85.0 85.2 84.8 66 72.4 0.0 3.0 N 0.00 29.882
07/15/2005 3:30 p 91.0 85.2 85.2 85.4 84.8 65 72.1 0.0 3.0 N 0.00 29.877
07/15/2005 4:00 p 90.2 85.4 85.4 85.6 85.1 63 71.4 0.0 2.0 N 0.00 29.875
07/20/2005 7:50 p 81.0 78.9 78.9 79.7 78.4 68 67.5 0.0 0.0 --- 0.00 29.805
07/20/2005 8:00 p 80.0 78.1 78.1 78.4 77.7 70 67.5 0.0 0.0 --- 0.00 29.805
07/20/2005 8:10 p 79.0 77.4 77.4 77.7 77.2 70 66.9 0.0 0.0 --- 0.00 29.810
07/20/2005 8:20 p 79.4 77.0 77.0 77.2 76.8 72 67.3 0.0 0.0 --- 0.00 29.811
07/20/2005 8:30 p 79.2 76.5 76.5 76.8 76.3 71 66.4 0.0 0.0 --- 0.00 29.817
07/20/2005 8:40 p 78.3 76.1 76.1 76.3 76.0 73 66.8 0.0 0.0 --- 0.00 29.820
07/20/2005 8:50 p 78.3 75.9 75.9 76.0 75.8 73 66.6 0.0 0.0 --- 0.00 29.826
07/20/2005 9:00 p 78.4 75.9 75.9 75.9 75.8 74 67.0 0.0 0.0 --- 0.00 29.831
07/20/2005 9:10 p 78.5 75.9 75.9 76.0 75.8 75 67.4 0.0 0.0 --- 0.00 29.834
07/20/2005 9:20 p 78.4 76.0 76.0 76.0 75.9 74 67.1 0.0 1.0 ESE 0.00 29.835
07/20/2005 9:30 p 78.4 75.8 75.8 76.0 75.5 74 66.9 0.0 0.0 --- 0.00 29.839
07/20/2005 9:40 p 77.0 75.2 75.2 75.6 75.0 74 66.4 0.0 0.0 --- 0.00 29.838
07/20/2005 9:50 p 77.0 74.7 74.7 75.0 74.4 76 66.6 0.0 0.0 --- 0.00 29.837
07/20/2005 10:00 p 76.0 74.1 74.1 74.4 73.9 78 66.8 0.0 0.0 --- 0.00 29.840
07/20/2005 10:10 p 76.0 73.7 73.7 73.9 73.6 79 66.8 0.0 0.0 --- 0.00 29.842
07/20/2005 10:20 p 75.0 73.4 73.4 73.6 73.2 80 66.9 0.0 0.0 --- 0.00 29.840
07/20/2005 10:30 p 75.0 73.1 73.1 73.2 73.1 81 66.9 0.0 0.0 --- 0.00 29.843
07/20/2005 10:40 p 75.0 73.0 73.0 73.1 73.0 81 66.8 0.0 0.0 --- 0.00 29.842
07/20/2005 10:50 p 75.0 73.0 73.0 73.0 72.9 81 66.8 0.0 0.0 --- 0.00 29.842
07/20/2005 11:00 p 75.0 72.8 72.8 72.9 72.8 82 67.0 0.0 0.0 --- 0.00 29.846
07/20/2005 11:10 p 75.0 72.7 72.7 72.8 72.7 83 67.2 0.0 0.0 --- 0.00 29.847
07/20/2005 11:20 p 75.0 72.6 72.6 72.7 72.5 84 67.5 0.0 0.0 --- 0.00 29.847
07/20/2005 11:30 p 74.0 72.4 72.4 72.5 72.2 84 67.3 0.0 0.0 --- 0.00 29.845
07/20/2005 11:40 p 74.0 72.0 72.0 72.2 71.8 85 67.2 0.0 0.0 --- 0.00 29.845
07/20/2005 11:50 p 74.0 71.6 71.6 71.8 71.5 86 67.2 0.0 0.0 --- 0.00 29.849
07/21/2005 12:00 a 73.0 71.3 71.3 71.5 71.1 86 66.9 0.0 0.0 --- 0.00 29.849
07/21/2005 12:10 a 73.0 70.9 70.9 71.1 70.7 87 66.8 0.0 0.0 --- 0.00 29.851
07/21/2005 12:20 a 73.0 70.6 70.6 70.8 70.5 88 66.9 0.0 0.0 --- 0.00 29.851
07/21/2005 12:30 a 72.0 70.3 70.3 70.5 70.1 88 66.6 0.0 0.0 --- 0.00 29.847
07/21/2005 12:40 a 72.0 70.0 70.0 70.1 69.9 89 66.6 0.0 0.0 --- 0.00 29.847
07/21/2005 12:50 a 72.0 69.8 69.8 69.9 69.6 90 66.7 0.0 0.0 --- 0.00 29.846
07/21/2005 1:00 a 72.0 69.5 69.5 69.6 69.3 90 66.4 0.0 0.0 --- 0.00 29.841
07/21/2005 1:10 a 71.1 69.2 69.2 69.4 69.0 91 66.5 0.0 0.0 --- 0.00 29.839
07/21/2005 1:20 a 71.1 68.9 68.9 69.0 68.8 91 66.2 0.0 0.0 --- 0.00 29.836
07/21/2005 1:30 a 71.2 68.7 68.7 68.8 68.6 92 66.3 0.0 0.0 --- 0.00 29.837
07/21/2005 1:40 a 71.2 68.6 68.6 68.6 68.5 92 66.2 0.0 0.0 --- 0.00 29.834
07/21/2005 1:50 a 70.0 68.4 68.4 68.5 68.4 92 66.0 0.0 0.0 --- 0.00 29.833
07/21/2005 2:00 a 70.0 68.3 68.3 68.4 68.3 93 66.2 0.0 0.0 --- 0.00 29.828
07/21/2005 2:10 a 70.0 68.3 68.3 68.3 68.2 92 65.9 0.0 0.0 --- 0.00 29.820
07/21/2005 2:20 a 70.0 68.2 68.2 68.3 68.0 92 65.8 0.0 0.0 --- 0.00 29.815
07/21/2005 2:30 a 67.9 67.9 67.9 68.0 67.7 92 65.5 0.0 0.0 --- 0.00 29.817
07/21/2005 2:40 a 67.7 67.7 67.7 67.8 67.5 92 65.3 0.0 0.0 --- 0.00 29.814
07/21/2005 2:50 a 67.4 67.4 67.4 67.6 67.3 91 64.7 0.0 0.0 --- 0.00 29.817
07/21/2005 3:00 a 67.2 67.2 67.2 67.3 67.1 91 64.5 0.0 0.0 --- 0.00 29.818
07/21/2005 3:10 a 67.0 67.0 67.0 67.1 66.9 91 64.3 0.0 0.0 --- 0.00 29.818
07/21/2005 3:20 a 66.9 66.9 66.9 66.9 66.8 92 64.5 0.0 0.0 --- 0.00 29.820
07/21/2005 3:30 a 66.6 66.6 66.6 66.8 66.5 92 64.2 0.0 0.0 --- 0.00 29.819
07/21/2005 3:40 a 66.4 66.4 66.4 66.5 66.2 91 63.7 0.0 0.0 --- 0.00 29.824
07/21/2005 3:50 a 66.1 66.1 66.1 66.2 66.0 91 63.4 0.0 0.0 --- 0.00 29.827
07/21/2005 4:00 a 65.9 65.9 65.9 66.0 65.9 92 63.5 0.0 0.0 --- 0.00 29.826
07/21/2005 4:10 a 65.8 65.8 65.8 65.9 65.7 92 63.4 0.0 0.0 --- 0.00 29.831
07/21/2005 4:20 a 65.6 65.6 65.6 65.8 65.6 93 63.5 0.0 0.0 --- 0.00 29.828
07/21/2005 4:30 a 65.5 65.5 65.5 65.6 65.5 92 63.1 0.0 0.0 --- 0.00 29.830
07/21/2005 4:40 a 65.4 65.4 65.4 65.5 65.4 93 63.3 0.0 0.0 --- 0.00 29.830
07/21/2005 4:50 a 65.4 65.4 65.4 65.5 65.4 93 63.3 0.0 0.0 --- 0.00 29.833
07/21/2005 5:00 a 65.3 65.3 65.3 65.4 65.3 93 63.2 0.0 0.0 --- 0.00 29.835
07/21/2005 5:10 a 65.2 65.2 65.2 65.3 65.2 94 63.4 0.0 0.0 --- 0.00 29.833
07/21/2005 5:20 a 65.2 65.2 65.2 65.2 65.2 94 63.4 0.0 0.0 --- 0.00 29.837
07/21/2005 5:30 a 65.2 65.2 65.2 65.2 65.1 94 63.4 0.0 0.0 --- 0.00 29.843
07/21/2005 5:40 a 65.1 65.1 65.1 65.2 65.0 94 63.3 0.0 0.0 --- 0.00 29.841
07/21/2005 5:50 a 65.0 65.0 65.0 65.1 65.0 94 63.2 0.0 0.0 --- 0.00 29.843
07/21/2005 6:00 a 65.1 65.1 65.1 65.2 65.1 95 63.6 0.0 0.0 --- 0.00 29.839
07/21/2005 6:10 a 65.2 65.2 65.2 65.3 65.1 95 63.7 0.0 0.0 --- 0.00 29.838
07/21/2005 6:20 a 65.4 65.4 65.4 65.6 65.3 95 63.9 0.0 0.0 --- 0.00 29.845
07/21/2005 6:30 a 65.8 65.8 65.8 66.0 65.6 95 64.3 0.0 0.0 --- 0.00 29.849
07/21/2005 6:40 a 66.1 66.1 66.1 66.4 66.0 95 64.6 0.0 0.0 --- 0.00 29.850
07/21/2005 6:50 a 66.6 66.6 66.6 66.9 66.4 95 65.1 0.0 0.0 --- 0.00 29.852
07/21/2005 7:00 a 67.1 67.1 67.1 67.5 66.9 94 65.3 0.0 0.0 --- 0.00 29.852
07/21/2005 7:10 a 70.0 68.1 68.1 68.7 67.5 91 65.4 0.0 0.0 --- 0.00 29.857
07/21/2005 7:20 a 71.0 69.2 69.2 69.7 68.7 90 66.1 0.0 0.0 --- 0.00 29.856
07/21/2005 7:30 a 72.0 70.1 70.1 70.4 69.7 89 66.7 0.0 0.0 --- 0.00 29.857
07/21/2005 7:40 a 73.0 70.7 70.7 71.1 70.4 87 66.6 0.0 0.0 --- 0.00 29.856
07/21/2005 7:50 a 74.0 71.5 71.5 71.8 71.1 83 66.1 0.0 0.0 --- 0.00 29.858
07/21/2005 8:00 a 73.6 72.1 72.1 72.4 71.8 78 64.9 0.0 0.0 --- 0.00 29.859
07/21/2005 8:10 a 74.8 72.7 72.7 73.1 72.4 78 65.5 0.0 0.0 --- 0.00 29.860
07/21/2005 8:20 a 76.0 73.5 73.5 73.9 73.1 76 65.5 0.0 0.0 --- 0.00 29.866
07/21/2005 8:30 a 76.0 74.4 74.4 74.8 73.9 73 65.2 0.0 0.0 --- 0.00 29.864
07/21/2005 8:40 a 77.0 75.3 75.3 75.8 74.8 71 65.3 0.0 0.0 --- 0.00 29.863
07/21/2005 8:50 a 78.0 76.4 76.4 77.0 75.9 70 65.9 0.0 0.0 --- 0.00 29.867
07/21/2005 9:00 a 78.4 77.3 77.3 77.6 77.0 67 65.5 0.0 0.0 --- 0.00 29.861
07/21/2005 9:10 a 79.5 78.0 78.0 78.3 77.7 65 65.3 0.0 0.0 --- 0.00 29.861
07/21/2005 9:20 a 81.0 78.6 78.6 78.9 78.3 65 65.9 0.0 0.0 --- 0.00 29.858
07/21/2005 9:30 a 81.0 79.3 79.3 79.6 78.9 61 64.7 0.0 0.0 --- 0.00 29.865
07/21/2005 9:40 a 82.0 80.0 80.0 80.4 79.6 60 64.9 0.0 0.0 --- 0.00 29.861
07/21/2005 9:50 a 82.4 80.8 80.8 81.2 80.4 57 64.2 0.0 0.0 --- 0.00 29.854
07/21/2005 10:00 a 84.0 81.5 81.5 81.8 81.2 60 66.3 0.0 0.0 --- 0.00 29.852
07/21/2005 10:10 a 83.6 82.0 82.0 82.2 81.8 56 64.8 0.0 0.0 --- 0.00 29.850
07/21/2005 10:20 a 85.0 82.5 82.5 82.7 82.2 51 62.6 0.0 0.0 --- 0.00 29.840
07/21/2005 10:30 a 85.0 83.0 83.0 83.3 82.7 55 65.2 0.0 0.0 --- 0.00 29.837
07/21/2005 10:40 a 85.0 83.4 83.4 83.4 83.3 58 67.1 0.0 0.0 --- 0.00 29.837
07/21/2005 10:50 a 85.0 82.9 82.9 83.4 82.5 55 65.1 0.0 0.0 --- 0.00 29.834
07/21/2005 11:00 a 83.2 82.4 82.4 82.5 82.4 52 63.0 0.0 0.0 --- 0.00 29.826
07/21/2005 11:10 a 85.0 82.8 82.8 83.1 82.4 54 64.5 0.0 0.0 --- 0.00 29.825
07/21/2005 11:20 a 85.0 83.3 83.3 83.7 83.1 53 64.4 0.0 0.0 --- 0.00 29.817
07/21/2005 11:30 a 86.0 84.0 84.0 84.3 83.7 50 63.4 0.0 0.0 --- 0.00 29.820
07/21/2005 11:40 a 87.0 84.7 84.7 84.9 84.4 50 64.0 0.0 0.0 --- 0.00 29.820
07/21/2005 11:50 a 87.2 85.2 85.2 85.4 84.9 51 65.0 0.0 0.0 --- 0.00 29.816
07/21/2005 12:00 p 87.4 85.7 85.7 86.0 85.4 47 63.2 0.0 0.0 --- 0.00 29.813
07/21/2005 12:10 p 87.2 86.4 86.4 86.9 86.0 46 63.2 0.0 0.0 --- 0.00 29.805
07/21/2005 12:20 p 87.3 87.3 87.3 87.6 86.9 41 60.7 0.0 0.0 --- 0.00 29.801
07/21/2005 12:30 p 88.4 88.0 88.0 88.4 87.6 41 61.4 0.0 0.0 --- 0.00 29.800
07/21/2005 12:40 p 91.2 88.8 88.8 89.2 88.4 43 63.4 0.0 0.0 --- 0.00 29.797
07/21/2005 12:50 p 90.0 89.4 89.4 89.6 89.2 40 61.9 0.0 0.0 --- 0.00 29.795
07/21/2005 1:00 p 91.7 89.8 89.8 90.0 89.6 39 61.6 0.0 0.0 --- 0.00 29.790
07/21/2005 1:10 p 92.0 90.0 90.0 90.1 89.9 40 62.5 0.0 0.0 --- 0.00 29.788
07/21/2005 1:20 p 91.7 90.1 90.1 90.3 90.0 39 61.8 0.0 0.0 --- 0.00 29.787
07/21/2005 1:30 p 92.0 90.1 90.1 90.2 90.1 40 62.5 0.0 0.0 --- 0.00 29.786
07/21/2005 1:40 p 92.6 90.2 90.2 90.4 90.1 42 64.0 0.0 0.0 --- 0.00 29.784
07/21/2005 1:50 p 93.3 90.5 90.5 90.7 90.4 41 63.6 0.0 0.0 --- 0.00 29.784
07/21/2005 2:00 p 93.3 90.8 90.8 90.9 90.7 41 63.9 0.0 0.0 --- 0.00 29.783
07/21/2005 2:10 p 93.6 90.5 90.5 90.7 90.3 42 64.3 0.0 0.0 --- 0.00 29.776
07/21/2005 2:20 p 93.2 90.4 90.4 90.4 90.3 44 65.5 0.0 0.0 --- 0.00 29.774
07/21/2005 2:30 p 92.0 90.4 90.4 90.4 90.3 40 62.8 0.0 0.0 --- 0.00 29.771
07/21/2005 2:40 p 93.5 90.1 90.1 90.3 90.0 45 65.9 0.0 0.0 --- 0.00 29.772
07/21/2005 2:50 p 93.2 90.1 90.1 90.2 90.0 44 65.3 0.0 0.0 --- 0.00 29.767
07/21/2005 3:00 p 93.2 90.3 90.3 90.4 90.2 44 65.4 0.0 0.0 --- 0.00 29.765
07/21/2005 3:10 p 93.2 90.3 90.3 90.4 90.3 44 65.4 0.0 0.0 --- 0.00 29.764
07/21/2005 3:20 p 92.6 90.2 90.2 90.3 90.1 42 64.0 0.0 0.0 --- 0.00 29.765
07/21/2005 3:30 p 92.3 90.0 90.0 90.1 89.9 41 63.2 0.0 0.0 --- 0.00 29.763
07/21/2005 3:40 p 92.3 89.9 89.9 89.9 89.8 41 63.1 0.0 0.0 --- 0.00 29.760
07/21/2005 3:50 p 93.2 89.7 89.7 89.8 89.5 44 64.9 0.0 0.0 --- 0.00 29.760
07/21/2005 4:00 p 91.2 89.3 89.3 89.5 89.2 43 63.9 0.0 0.0 --- 0.00 29.761
07/21/2005 4:10 p 91.2 89.3